<?xml version="1.0" encoding="UTF-8" standalone="no" ?>
<gpx xmlns="http://www.topografix.com/GPX/1/1" xmlns:xsi="http://www.w3.org/2001/XMLSchema-instance" xsi:schemaLocation="http://www.topografix.com/GPX/1/1 http://www.topografix.com/GPX/1/1/gpx.xsd" version="1.1" creator="VisuGPX - https://www.visugpx.com">
  <metadata>
    <name>Marche nordique du 21/12/2012</name>
    <desc><![CDATA[De 9h à 11h avec le groupe complet]]></desc>
  </metadata>
  <trk>
    <name><![CDATA[22/12/12 09:15]]></name>
    <desc><![CDATA[]]></desc>
    <trkseg>
      <trkpt lat="47.30054" lon="4.93067">
        <ele>584</ele>
        <time>2012-12-22T08:16:09Z</time>
      </trkpt>
      <trkpt lat="47.30056" lon="4.93061">
        <ele>586</ele>
        <time>2012-12-22T08:16:14Z</time>
      </trkpt>
      <trkpt lat="47.30059" lon="4.93056">
        <ele>582</ele>
        <time>2012-12-22T08:16:17Z</time>
      </trkpt>
      <trkpt lat="47.30062" lon="4.9305">
        <ele>580</ele>
        <time>2012-12-22T08:16:21Z</time>
      </trkpt>
      <trkpt lat="47.30064" lon="4.93042">
        <ele>578</ele>
        <time>2012-12-22T08:16:26Z</time>
      </trkpt>
      <trkpt lat="47.30065" lon="4.93036">
        <ele>576</ele>
        <time>2012-12-22T08:16:29Z</time>
      </trkpt>
      <trkpt lat="47.30065" lon="4.93026">
        <ele>575</ele>
        <time>2012-12-22T08:16:33Z</time>
      </trkpt>
      <trkpt lat="47.30066" lon="4.93018">
        <ele>576</ele>
        <time>2012-12-22T08:16:37Z</time>
      </trkpt>
      <trkpt lat="47.30068" lon="4.93011">
        <ele>576</ele>
        <time>2012-12-22T08:16:41Z</time>
      </trkpt>
      <trkpt lat="47.30071" lon="4.93004">
        <ele>576</ele>
        <time>2012-12-22T08:16:44Z</time>
      </trkpt>
      <trkpt lat="47.30073" lon="4.92999">
        <ele>576</ele>
        <time>2012-12-22T08:16:48Z</time>
      </trkpt>
      <trkpt lat="47.30075" lon="4.92991">
        <ele>574</ele>
        <time>2012-12-22T08:16:52Z</time>
      </trkpt>
      <trkpt lat="47.30076" lon="4.92983">
        <ele>573</ele>
        <time>2012-12-22T08:16:56Z</time>
      </trkpt>
      <trkpt lat="47.30077" lon="4.92976">
        <ele>572</ele>
        <time>2012-12-22T08:17:00Z</time>
      </trkpt>
      <trkpt lat="47.30078" lon="4.92967">
        <ele>570</ele>
        <time>2012-12-22T08:17:04Z</time>
      </trkpt>
      <trkpt lat="47.30079" lon="4.9296">
        <ele>568</ele>
        <time>2012-12-22T08:17:07Z</time>
      </trkpt>
      <trkpt lat="47.30081" lon="4.92952">
        <ele>567</ele>
        <time>2012-12-22T08:17:11Z</time>
      </trkpt>
      <trkpt lat="47.30081" lon="4.92945">
        <ele>566</ele>
        <time>2012-12-22T08:17:15Z</time>
      </trkpt>
      <trkpt lat="47.30081" lon="4.92937">
        <ele>567</ele>
        <time>2012-12-22T08:17:18Z</time>
      </trkpt>
      <trkpt lat="47.3008" lon="4.9293">
        <ele>567</ele>
        <time>2012-12-22T08:17:21Z</time>
      </trkpt>
      <trkpt lat="47.30079" lon="4.92922">
        <ele>565</ele>
        <time>2012-12-22T08:17:25Z</time>
      </trkpt>
      <trkpt lat="47.3008" lon="4.92913">
        <ele>568</ele>
        <time>2012-12-22T08:17:29Z</time>
      </trkpt>
      <trkpt lat="47.3008" lon="4.92904">
        <ele>569</ele>
        <time>2012-12-22T08:17:33Z</time>
      </trkpt>
      <trkpt lat="47.30079" lon="4.92897">
        <ele>570</ele>
        <time>2012-12-22T08:17:37Z</time>
      </trkpt>
      <trkpt lat="47.30077" lon="4.92889">
        <ele>569</ele>
        <time>2012-12-22T08:17:41Z</time>
      </trkpt>
      <trkpt lat="47.30076" lon="4.92881">
        <ele>570</ele>
        <time>2012-12-22T08:17:45Z</time>
      </trkpt>
      <trkpt lat="47.30075" lon="4.92872">
        <ele>570</ele>
        <time>2012-12-22T08:17:49Z</time>
      </trkpt>
      <trkpt lat="47.30074" lon="4.92864">
        <ele>569</ele>
        <time>2012-12-22T08:17:53Z</time>
      </trkpt>
      <trkpt lat="47.30074" lon="4.92855">
        <ele>568</ele>
        <time>2012-12-22T08:17:57Z</time>
      </trkpt>
      <trkpt lat="47.30074" lon="4.92847">
        <ele>567</ele>
        <time>2012-12-22T08:18:01Z</time>
      </trkpt>
      <trkpt lat="47.30073" lon="4.92839">
        <ele>567</ele>
        <time>2012-12-22T08:18:05Z</time>
      </trkpt>
      <trkpt lat="47.30072" lon="4.92832">
        <ele>566</ele>
        <time>2012-12-22T08:18:08Z</time>
      </trkpt>
      <trkpt lat="47.30071" lon="4.92825">
        <ele>566</ele>
        <time>2012-12-22T08:18:11Z</time>
      </trkpt>
      <trkpt lat="47.3007" lon="4.92818">
        <ele>564</ele>
        <time>2012-12-22T08:18:14Z</time>
      </trkpt>
      <trkpt lat="47.30069" lon="4.92809">
        <ele>564</ele>
        <time>2012-12-22T08:18:18Z</time>
      </trkpt>
      <trkpt lat="47.30068" lon="4.92802">
        <ele>564</ele>
        <time>2012-12-22T08:18:21Z</time>
      </trkpt>
      <trkpt lat="47.30065" lon="4.92795">
        <ele>563</ele>
        <time>2012-12-22T08:18:25Z</time>
      </trkpt>
      <trkpt lat="47.30063" lon="4.92788">
        <ele>563</ele>
        <time>2012-12-22T08:18:29Z</time>
      </trkpt>
      <trkpt lat="47.30058" lon="4.92785">
        <ele>563</ele>
        <time>2012-12-22T08:18:34Z</time>
      </trkpt>
      <trkpt lat="47.30055" lon="4.9278">
        <ele>568</ele>
        <time>2012-12-22T08:18:41Z</time>
      </trkpt>
      <trkpt lat="47.3005" lon="4.92777">
        <ele>571</ele>
        <time>2012-12-22T08:18:46Z</time>
      </trkpt>
      <trkpt lat="47.30046" lon="4.92774">
        <ele>573</ele>
        <time>2012-12-22T08:18:50Z</time>
      </trkpt>
      <trkpt lat="47.30041" lon="4.92771">
        <ele>575</ele>
        <time>2012-12-22T08:18:54Z</time>
      </trkpt>
      <trkpt lat="47.30035" lon="4.92767">
        <ele>575</ele>
        <time>2012-12-22T08:18:57Z</time>
      </trkpt>
      <trkpt lat="47.30031" lon="4.92765">
        <ele>575</ele>
        <time>2012-12-22T08:19:00Z</time>
      </trkpt>
      <trkpt lat="47.30026" lon="4.92762">
        <ele>573</ele>
        <time>2012-12-22T08:19:03Z</time>
      </trkpt>
      <trkpt lat="47.30021" lon="4.9276">
        <ele>572</ele>
        <time>2012-12-22T08:19:06Z</time>
      </trkpt>
      <trkpt lat="47.30017" lon="4.92756">
        <ele>572</ele>
        <time>2012-12-22T08:19:11Z</time>
      </trkpt>
      <trkpt lat="47.30011" lon="4.92752">
        <ele>572</ele>
        <time>2012-12-22T08:19:15Z</time>
      </trkpt>
      <trkpt lat="47.30005" lon="4.9275">
        <ele>571</ele>
        <time>2012-12-22T08:19:18Z</time>
      </trkpt>
      <trkpt lat="47.3" lon="4.92749">
        <ele>572</ele>
        <time>2012-12-22T08:19:21Z</time>
      </trkpt>
      <trkpt lat="47.29997" lon="4.92743">
        <ele>575</ele>
        <time>2012-12-22T08:19:31Z</time>
      </trkpt>
      <trkpt lat="47.29992" lon="4.92741">
        <ele>579</ele>
        <time>2012-12-22T08:19:40Z</time>
      </trkpt>
      <trkpt lat="47.29988" lon="4.92736">
        <ele>581</ele>
        <time>2012-12-22T08:19:46Z</time>
      </trkpt>
      <trkpt lat="47.29983" lon="4.92736">
        <ele>582</ele>
        <time>2012-12-22T08:19:52Z</time>
      </trkpt>
      <trkpt lat="47.29978" lon="4.9274">
        <ele>582</ele>
        <time>2012-12-22T08:19:56Z</time>
      </trkpt>
      <trkpt lat="47.29974" lon="4.92739">
        <ele>583</ele>
        <time>2012-12-22T08:20:01Z</time>
      </trkpt>
      <trkpt lat="47.29974" lon="4.92739">
        <ele>583</ele>
        <time>2012-12-22T08:20:01Z</time>
      </trkpt>
      <trkpt lat="47.29974" lon="4.92739">
        <ele>583</ele>
        <time>2012-12-22T08:20:02Z</time>
      </trkpt>
      <trkpt lat="47.29969" lon="4.92736">
        <ele>584</ele>
        <time>2012-12-22T08:20:05Z</time>
      </trkpt>
      <trkpt lat="47.29969" lon="4.92736">
        <ele>584</ele>
        <time>2012-12-22T08:20:05Z</time>
      </trkpt>
      <trkpt lat="47.29969" lon="4.92736">
        <ele>584</ele>
        <time>2012-12-22T08:20:07Z</time>
      </trkpt>
      <trkpt lat="47.29967" lon="4.92729">
        <ele>590</ele>
        <time>2012-12-22T08:20:16Z</time>
      </trkpt>
      <trkpt lat="47.29961" lon="4.92729">
        <ele>591</ele>
        <time>2012-12-22T08:20:23Z</time>
      </trkpt>
      <trkpt lat="47.29958" lon="4.92724">
        <ele>594</ele>
        <time>2012-12-22T08:20:27Z</time>
      </trkpt>
      <trkpt lat="47.29955" lon="4.92719">
        <ele>597</ele>
        <time>2012-12-22T08:20:32Z</time>
      </trkpt>
      <trkpt lat="47.29951" lon="4.92716">
        <ele>600</ele>
        <time>2012-12-22T08:20:38Z</time>
      </trkpt>
      <trkpt lat="47.29946" lon="4.92714">
        <ele>602</ele>
        <time>2012-12-22T08:20:42Z</time>
      </trkpt>
      <trkpt lat="47.29941" lon="4.92711">
        <ele>604</ele>
        <time>2012-12-22T08:20:47Z</time>
      </trkpt>
      <trkpt lat="47.29937" lon="4.9271">
        <ele>605</ele>
        <time>2012-12-22T08:20:54Z</time>
      </trkpt>
      <trkpt lat="47.29932" lon="4.92708">
        <ele>608</ele>
        <time>2012-12-22T08:21:10Z</time>
      </trkpt>
      <trkpt lat="47.29927" lon="4.92706">
        <ele>609</ele>
        <time>2012-12-22T08:21:15Z</time>
      </trkpt>
      <trkpt lat="47.29923" lon="4.92702">
        <ele>611</ele>
        <time>2012-12-22T08:21:19Z</time>
      </trkpt>
      <trkpt lat="47.29918" lon="4.92701">
        <ele>616</ele>
        <time>2012-12-22T08:21:28Z</time>
      </trkpt>
      <trkpt lat="47.29918" lon="4.92701">
        <ele>616</ele>
        <time>2012-12-22T08:21:28Z</time>
      </trkpt>
      <trkpt lat="47.29918" lon="4.92701">
        <ele>618</ele>
        <time>2012-12-22T08:21:29Z</time>
      </trkpt>
      <trkpt lat="47.29914" lon="4.92698">
        <ele>618</ele>
        <time>2012-12-22T08:21:33Z</time>
      </trkpt>
      <trkpt lat="47.29909" lon="4.92695">
        <ele>618</ele>
        <time>2012-12-22T08:21:41Z</time>
      </trkpt>
      <trkpt lat="47.29904" lon="4.92692">
        <ele>621</ele>
        <time>2012-12-22T08:21:49Z</time>
      </trkpt>
      <trkpt lat="47.29899" lon="4.92694">
        <ele>621</ele>
        <time>2012-12-22T08:22:00Z</time>
      </trkpt>
      <trkpt lat="47.29894" lon="4.92696">
        <ele>623</ele>
        <time>2012-12-22T08:22:11Z</time>
      </trkpt>
      <trkpt lat="47.29892" lon="4.92702">
        <ele>625</ele>
        <time>2012-12-22T08:22:20Z</time>
      </trkpt>
      <trkpt lat="47.29885" lon="4.92701">
        <ele>628</ele>
        <time>2012-12-22T08:22:33Z</time>
      </trkpt>
      <trkpt lat="47.29881" lon="4.92707">
        <ele>628</ele>
        <time>2012-12-22T08:22:34Z</time>
      </trkpt>
      <trkpt lat="47.29877" lon="4.92705">
        <ele>628</ele>
        <time>2012-12-22T08:22:36Z</time>
      </trkpt>
      <trkpt lat="47.29873" lon="4.92709">
        <ele>631</ele>
        <time>2012-12-22T08:22:44Z</time>
      </trkpt>
      <trkpt lat="47.29869" lon="4.92713">
        <ele>631</ele>
        <time>2012-12-22T08:22:52Z</time>
      </trkpt>
      <trkpt lat="47.29868" lon="4.9272">
        <ele>629</ele>
        <time>2012-12-22T08:23:05Z</time>
      </trkpt>
      <trkpt lat="47.29868" lon="4.9272">
        <ele>629</ele>
        <time>2012-12-22T08:23:05Z</time>
      </trkpt>
      <trkpt lat="47.29868" lon="4.9272">
        <ele>630</ele>
        <time>2012-12-22T08:23:07Z</time>
      </trkpt>
      <trkpt lat="47.29866" lon="4.92727">
        <ele>631</ele>
        <time>2012-12-22T08:23:18Z</time>
      </trkpt>
      <trkpt lat="47.29864" lon="4.92732">
        <ele>633</ele>
        <time>2012-12-22T08:23:23Z</time>
      </trkpt>
      <trkpt lat="47.29864" lon="4.92739">
        <ele>634</ele>
        <time>2012-12-22T08:23:28Z</time>
      </trkpt>
      <trkpt lat="47.29862" lon="4.92745">
        <ele>635</ele>
        <time>2012-12-22T08:23:36Z</time>
      </trkpt>
      <trkpt lat="47.29862" lon="4.92752">
        <ele>635</ele>
        <time>2012-12-22T08:23:40Z</time>
      </trkpt>
      <trkpt lat="47.29858" lon="4.92757">
        <ele>635</ele>
        <time>2012-12-22T08:23:46Z</time>
      </trkpt>
      <trkpt lat="47.29854" lon="4.92753">
        <ele>635</ele>
        <time>2012-12-22T08:23:50Z</time>
      </trkpt>
      <trkpt lat="47.2985" lon="4.92749">
        <ele>636</ele>
        <time>2012-12-22T08:23:55Z</time>
      </trkpt>
      <trkpt lat="47.29848" lon="4.92742">
        <ele>638</ele>
        <time>2012-12-22T08:24:00Z</time>
      </trkpt>
      <trkpt lat="47.29844" lon="4.92738">
        <ele>639</ele>
        <time>2012-12-22T08:24:05Z</time>
      </trkpt>
      <trkpt lat="47.2984" lon="4.92734">
        <ele>641</ele>
        <time>2012-12-22T08:24:09Z</time>
      </trkpt>
      <trkpt lat="47.29837" lon="4.92729">
        <ele>641</ele>
        <time>2012-12-22T08:24:14Z</time>
      </trkpt>
      <trkpt lat="47.29834" lon="4.92724">
        <ele>643</ele>
        <time>2012-12-22T08:24:19Z</time>
      </trkpt>
      <trkpt lat="47.2983" lon="4.92718">
        <ele>645</ele>
        <time>2012-12-22T08:24:24Z</time>
      </trkpt>
      <trkpt lat="47.29828" lon="4.92712">
        <ele>647</ele>
        <time>2012-12-22T08:24:29Z</time>
      </trkpt>
      <trkpt lat="47.29823" lon="4.92706">
        <ele>647</ele>
        <time>2012-12-22T08:24:33Z</time>
      </trkpt>
      <trkpt lat="47.29819" lon="4.92702">
        <ele>646</ele>
        <time>2012-12-22T08:24:36Z</time>
      </trkpt>
      <trkpt lat="47.29816" lon="4.92696">
        <ele>648</ele>
        <time>2012-12-22T08:24:41Z</time>
      </trkpt>
      <trkpt lat="47.29811" lon="4.9269">
        <ele>649</ele>
        <time>2012-12-22T08:24:46Z</time>
      </trkpt>
      <trkpt lat="47.29807" lon="4.92684">
        <ele>650</ele>
        <time>2012-12-22T08:24:50Z</time>
      </trkpt>
      <trkpt lat="47.29803" lon="4.92678">
        <ele>650</ele>
        <time>2012-12-22T08:24:55Z</time>
      </trkpt>
      <trkpt lat="47.29797" lon="4.92675">
        <ele>647</ele>
        <time>2012-12-22T08:24:57Z</time>
      </trkpt>
      <trkpt lat="47.29799" lon="4.92682">
        <ele>643</ele>
        <time>2012-12-22T08:25:03Z</time>
      </trkpt>
      <trkpt lat="47.29802" lon="4.92685">
        <ele>643</ele>
        <time>2012-12-22T08:25:07Z</time>
      </trkpt>
      <trkpt lat="47.29806" lon="4.92689">
        <ele>645</ele>
        <time>2012-12-22T08:25:11Z</time>
      </trkpt>
      <trkpt lat="47.2981" lon="4.92694">
        <ele>644</ele>
        <time>2012-12-22T08:25:15Z</time>
      </trkpt>
      <trkpt lat="47.29814" lon="4.92699">
        <ele>643</ele>
        <time>2012-12-22T08:25:19Z</time>
      </trkpt>
      <trkpt lat="47.29818" lon="4.92704">
        <ele>644</ele>
        <time>2012-12-22T08:25:25Z</time>
      </trkpt>
      <trkpt lat="47.29822" lon="4.92709">
        <ele>646</ele>
        <time>2012-12-22T08:25:30Z</time>
      </trkpt>
      <trkpt lat="47.29826" lon="4.92714">
        <ele>648</ele>
        <time>2012-12-22T08:25:34Z</time>
      </trkpt>
      <trkpt lat="47.2983" lon="4.92718">
        <ele>647</ele>
        <time>2012-12-22T08:25:38Z</time>
      </trkpt>
      <trkpt lat="47.29835" lon="4.92722">
        <ele>644</ele>
        <time>2012-12-22T08:25:42Z</time>
      </trkpt>
      <trkpt lat="47.2984" lon="4.92728">
        <ele>644</ele>
        <time>2012-12-22T08:25:46Z</time>
      </trkpt>
      <trkpt lat="47.29843" lon="4.92732">
        <ele>644</ele>
        <time>2012-12-22T08:25:50Z</time>
      </trkpt>
      <trkpt lat="47.29846" lon="4.92739">
        <ele>642</ele>
        <time>2012-12-22T08:25:53Z</time>
      </trkpt>
      <trkpt lat="47.2985" lon="4.92745">
        <ele>639</ele>
        <time>2012-12-22T08:25:57Z</time>
      </trkpt>
      <trkpt lat="47.29852" lon="4.92752">
        <ele>640</ele>
        <time>2012-12-22T08:26:03Z</time>
      </trkpt>
      <trkpt lat="47.29856" lon="4.92757">
        <ele>632</ele>
        <time>2012-12-22T08:26:37Z</time>
      </trkpt>
      <trkpt lat="47.29856" lon="4.92757">
        <ele>632</ele>
        <time>2012-12-22T08:26:37Z</time>
      </trkpt>
      <trkpt lat="47.29856" lon="4.92757">
        <ele>632</ele>
        <time>2012-12-22T08:26:39Z</time>
      </trkpt>
      <trkpt lat="47.29852" lon="4.92751">
        <ele>636</ele>
        <time>2012-12-22T08:33:20Z</time>
      </trkpt>
      <trkpt lat="47.29849" lon="4.92745">
        <ele>637</ele>
        <time>2012-12-22T08:33:31Z</time>
      </trkpt>
      <trkpt lat="47.29849" lon="4.92745">
        <ele>637</ele>
        <time>2012-12-22T08:33:31Z</time>
      </trkpt>
      <trkpt lat="47.29849" lon="4.92745">
        <ele>638</ele>
        <time>2012-12-22T08:33:32Z</time>
      </trkpt>
      <trkpt lat="47.29846" lon="4.92739">
        <ele>641</ele>
        <time>2012-12-22T08:33:38Z</time>
      </trkpt>
      <trkpt lat="47.29842" lon="4.92736">
        <ele>643</ele>
        <time>2012-12-22T08:33:44Z</time>
      </trkpt>
      <trkpt lat="47.29837" lon="4.92732">
        <ele>643</ele>
        <time>2012-12-22T08:33:47Z</time>
      </trkpt>
      <trkpt lat="47.29837" lon="4.92732">
        <ele>643</ele>
        <time>2012-12-22T08:33:47Z</time>
      </trkpt>
      <trkpt lat="47.29837" lon="4.92732">
        <ele>643</ele>
        <time>2012-12-22T08:33:48Z</time>
      </trkpt>
      <trkpt lat="47.29833" lon="4.92727">
        <ele>643</ele>
        <time>2012-12-22T08:33:52Z</time>
      </trkpt>
      <trkpt lat="47.2983" lon="4.92722">
        <ele>643</ele>
        <time>2012-12-22T08:33:55Z</time>
      </trkpt>
      <trkpt lat="47.29826" lon="4.92719">
        <ele>641</ele>
        <time>2012-12-22T08:33:58Z</time>
      </trkpt>
      <trkpt lat="47.29822" lon="4.92715">
        <ele>642</ele>
        <time>2012-12-22T08:34:01Z</time>
      </trkpt>
      <trkpt lat="47.2982" lon="4.92708">
        <ele>643</ele>
        <time>2012-12-22T08:34:06Z</time>
      </trkpt>
      <trkpt lat="47.29816" lon="4.92702">
        <ele>643</ele>
        <time>2012-12-22T08:34:10Z</time>
      </trkpt>
      <trkpt lat="47.29812" lon="4.92698">
        <ele>644</ele>
        <time>2012-12-22T08:34:16Z</time>
      </trkpt>
      <trkpt lat="47.29809" lon="4.92692">
        <ele>646</ele>
        <time>2012-12-22T08:34:20Z</time>
      </trkpt>
      <trkpt lat="47.29805" lon="4.92687">
        <ele>645</ele>
        <time>2012-12-22T08:34:24Z</time>
      </trkpt>
      <trkpt lat="47.298" lon="4.92682">
        <ele>645</ele>
        <time>2012-12-22T08:34:28Z</time>
      </trkpt>
      <trkpt lat="47.29796" lon="4.92677">
        <ele>645</ele>
        <time>2012-12-22T08:34:32Z</time>
      </trkpt>
      <trkpt lat="47.29792" lon="4.92672">
        <ele>647</ele>
        <time>2012-12-22T08:34:36Z</time>
      </trkpt>
      <trkpt lat="47.29788" lon="4.92668">
        <ele>648</ele>
        <time>2012-12-22T08:34:40Z</time>
      </trkpt>
      <trkpt lat="47.29784" lon="4.92662">
        <ele>649</ele>
        <time>2012-12-22T08:34:44Z</time>
      </trkpt>
      <trkpt lat="47.2978" lon="4.92658">
        <ele>650</ele>
        <time>2012-12-22T08:34:49Z</time>
      </trkpt>
      <trkpt lat="47.29776" lon="4.92653">
        <ele>653</ele>
        <time>2012-12-22T08:34:54Z</time>
      </trkpt>
      <trkpt lat="47.29772" lon="4.92649">
        <ele>653</ele>
        <time>2012-12-22T08:34:57Z</time>
      </trkpt>
      <trkpt lat="47.29768" lon="4.92644">
        <ele>654</ele>
        <time>2012-12-22T08:35:00Z</time>
      </trkpt>
      <trkpt lat="47.29763" lon="4.92641">
        <ele>655</ele>
        <time>2012-12-22T08:35:04Z</time>
      </trkpt>
      <trkpt lat="47.29761" lon="4.92633">
        <ele>655</ele>
        <time>2012-12-22T08:35:07Z</time>
      </trkpt>
      <trkpt lat="47.29757" lon="4.92628">
        <ele>657</ele>
        <time>2012-12-22T08:35:10Z</time>
      </trkpt>
      <trkpt lat="47.29755" lon="4.92622">
        <ele>657</ele>
        <time>2012-12-22T08:35:13Z</time>
      </trkpt>
      <trkpt lat="47.2975" lon="4.92617">
        <ele>657</ele>
        <time>2012-12-22T08:35:16Z</time>
      </trkpt>
      <trkpt lat="47.29747" lon="4.92612">
        <ele>656</ele>
        <time>2012-12-22T08:35:19Z</time>
      </trkpt>
      <trkpt lat="47.29742" lon="4.92609">
        <ele>654</ele>
        <time>2012-12-22T08:35:23Z</time>
      </trkpt>
      <trkpt lat="47.29738" lon="4.92604">
        <ele>653</ele>
        <time>2012-12-22T08:35:26Z</time>
      </trkpt>
      <trkpt lat="47.29734" lon="4.92598">
        <ele>653</ele>
        <time>2012-12-22T08:35:30Z</time>
      </trkpt>
      <trkpt lat="47.29729" lon="4.92595">
        <ele>652</ele>
        <time>2012-12-22T08:35:33Z</time>
      </trkpt>
      <trkpt lat="47.29726" lon="4.92589">
        <ele>651</ele>
        <time>2012-12-22T08:35:38Z</time>
      </trkpt>
      <trkpt lat="47.29722" lon="4.92583">
        <ele>650</ele>
        <time>2012-12-22T08:35:42Z</time>
      </trkpt>
      <trkpt lat="47.29717" lon="4.92581">
        <ele>649</ele>
        <time>2012-12-22T08:35:45Z</time>
      </trkpt>
      <trkpt lat="47.29711" lon="4.92578">
        <ele>647</ele>
        <time>2012-12-22T08:35:49Z</time>
      </trkpt>
      <trkpt lat="47.29706" lon="4.92576">
        <ele>646</ele>
        <time>2012-12-22T08:35:52Z</time>
      </trkpt>
      <trkpt lat="47.29706" lon="4.92576">
        <ele>646</ele>
        <time>2012-12-22T08:35:52Z</time>
      </trkpt>
      <trkpt lat="47.29706" lon="4.92576">
        <ele>646</ele>
        <time>2012-12-22T08:35:54Z</time>
      </trkpt>
      <trkpt lat="47.297" lon="4.92575">
        <ele>646</ele>
        <time>2012-12-22T08:35:59Z</time>
      </trkpt>
      <trkpt lat="47.29694" lon="4.92573">
        <ele>646</ele>
        <time>2012-12-22T08:36:02Z</time>
      </trkpt>
      <trkpt lat="47.29688" lon="4.92572">
        <ele>646</ele>
        <time>2012-12-22T08:36:04Z</time>
      </trkpt>
      <trkpt lat="47.29682" lon="4.92572">
        <ele>645</ele>
        <time>2012-12-22T08:36:07Z</time>
      </trkpt>
      <trkpt lat="47.29676" lon="4.92572">
        <ele>647</ele>
        <time>2012-12-22T08:36:11Z</time>
      </trkpt>
      <trkpt lat="47.29672" lon="4.92572">
        <ele>648</ele>
        <time>2012-12-22T08:36:15Z</time>
      </trkpt>
      <trkpt lat="47.29665" lon="4.92572">
        <ele>647</ele>
        <time>2012-12-22T08:36:22Z</time>
      </trkpt>
      <trkpt lat="47.29659" lon="4.9257">
        <ele>647</ele>
        <time>2012-12-22T08:36:25Z</time>
      </trkpt>
      <trkpt lat="47.29653" lon="4.92569">
        <ele>646</ele>
        <time>2012-12-22T08:36:28Z</time>
      </trkpt>
      <trkpt lat="47.29648" lon="4.92568">
        <ele>645</ele>
        <time>2012-12-22T08:36:32Z</time>
      </trkpt>
      <trkpt lat="47.29643" lon="4.92566">
        <ele>645</ele>
        <time>2012-12-22T08:36:34Z</time>
      </trkpt>
      <trkpt lat="47.29638" lon="4.92566">
        <ele>645</ele>
        <time>2012-12-22T08:36:37Z</time>
      </trkpt>
      <trkpt lat="47.29638" lon="4.92566">
        <ele>645</ele>
        <time>2012-12-22T08:36:37Z</time>
      </trkpt>
      <trkpt lat="47.29638" lon="4.92566">
        <ele>645</ele>
        <time>2012-12-22T08:36:38Z</time>
      </trkpt>
      <trkpt lat="47.29634" lon="4.92566">
        <ele>646</ele>
        <time>2012-12-22T08:36:41Z</time>
      </trkpt>
      <trkpt lat="47.29628" lon="4.92565">
        <ele>646</ele>
        <time>2012-12-22T08:36:45Z</time>
      </trkpt>
      <trkpt lat="47.29623" lon="4.92565">
        <ele>646</ele>
        <time>2012-12-22T08:36:48Z</time>
      </trkpt>
      <trkpt lat="47.29618" lon="4.92564">
        <ele>646</ele>
        <time>2012-12-22T08:36:51Z</time>
      </trkpt>
      <trkpt lat="47.29613" lon="4.92565">
        <ele>648</ele>
        <time>2012-12-22T08:36:57Z</time>
      </trkpt>
      <trkpt lat="47.29607" lon="4.92565">
        <ele>647</ele>
        <time>2012-12-22T08:37:00Z</time>
      </trkpt>
      <trkpt lat="47.29601" lon="4.92566">
        <ele>645</ele>
        <time>2012-12-22T08:37:03Z</time>
      </trkpt>
      <trkpt lat="47.29596" lon="4.92567">
        <ele>643</ele>
        <time>2012-12-22T08:37:06Z</time>
      </trkpt>
      <trkpt lat="47.29591" lon="4.92569">
        <ele>642</ele>
        <time>2012-12-22T08:37:09Z</time>
      </trkpt>
      <trkpt lat="47.29585" lon="4.9257">
        <ele>644</ele>
        <time>2012-12-22T08:37:13Z</time>
      </trkpt>
      <trkpt lat="47.29579" lon="4.92572">
        <ele>643</ele>
        <time>2012-12-22T08:37:16Z</time>
      </trkpt>
      <trkpt lat="47.29573" lon="4.92575">
        <ele>642</ele>
        <time>2012-12-22T08:37:19Z</time>
      </trkpt>
      <trkpt lat="47.29568" lon="4.92577">
        <ele>643</ele>
        <time>2012-12-22T08:37:22Z</time>
      </trkpt>
      <trkpt lat="47.29563" lon="4.92576">
        <ele>644</ele>
        <time>2012-12-22T08:37:25Z</time>
      </trkpt>
      <trkpt lat="47.29556" lon="4.9258">
        <ele>642</ele>
        <time>2012-12-22T08:37:29Z</time>
      </trkpt>
      <trkpt lat="47.2955" lon="4.92581">
        <ele>642</ele>
        <time>2012-12-22T08:37:34Z</time>
      </trkpt>
      <trkpt lat="47.29545" lon="4.92581">
        <ele>643</ele>
        <time>2012-12-22T08:37:40Z</time>
      </trkpt>
      <trkpt lat="47.2954" lon="4.9258">
        <ele>644</ele>
        <time>2012-12-22T08:37:45Z</time>
      </trkpt>
      <trkpt lat="47.29534" lon="4.9258">
        <ele>646</ele>
        <time>2012-12-22T08:37:50Z</time>
      </trkpt>
      <trkpt lat="47.29528" lon="4.9258">
        <ele>647</ele>
        <time>2012-12-22T08:37:54Z</time>
      </trkpt>
      <trkpt lat="47.29522" lon="4.92579">
        <ele>647</ele>
        <time>2012-12-22T08:37:58Z</time>
      </trkpt>
      <trkpt lat="47.29517" lon="4.92579">
        <ele>646</ele>
        <time>2012-12-22T08:38:01Z</time>
      </trkpt>
      <trkpt lat="47.29512" lon="4.92578">
        <ele>646</ele>
        <time>2012-12-22T08:38:06Z</time>
      </trkpt>
      <trkpt lat="47.29507" lon="4.92578">
        <ele>647</ele>
        <time>2012-12-22T08:38:10Z</time>
      </trkpt>
      <trkpt lat="47.29502" lon="4.92578">
        <ele>650</ele>
        <time>2012-12-22T08:38:14Z</time>
      </trkpt>
      <trkpt lat="47.29497" lon="4.92576">
        <ele>651</ele>
        <time>2012-12-22T08:38:18Z</time>
      </trkpt>
      <trkpt lat="47.29491" lon="4.92574">
        <ele>650</ele>
        <time>2012-12-22T08:38:22Z</time>
      </trkpt>
      <trkpt lat="47.29487" lon="4.92572">
        <ele>650</ele>
        <time>2012-12-22T08:38:25Z</time>
      </trkpt>
      <trkpt lat="47.29483" lon="4.92569">
        <ele>650</ele>
        <time>2012-12-22T08:38:29Z</time>
      </trkpt>
      <trkpt lat="47.29478" lon="4.92567">
        <ele>650</ele>
        <time>2012-12-22T08:38:32Z</time>
      </trkpt>
      <trkpt lat="47.29473" lon="4.92565">
        <ele>650</ele>
        <time>2012-12-22T08:38:35Z</time>
      </trkpt>
      <trkpt lat="47.29468" lon="4.9256">
        <ele>650</ele>
        <time>2012-12-22T08:38:40Z</time>
      </trkpt>
      <trkpt lat="47.29462" lon="4.92559">
        <ele>651</ele>
        <time>2012-12-22T08:38:44Z</time>
      </trkpt>
      <trkpt lat="47.29458" lon="4.92555">
        <ele>651</ele>
        <time>2012-12-22T08:38:47Z</time>
      </trkpt>
      <trkpt lat="47.29454" lon="4.92553">
        <ele>652</ele>
        <time>2012-12-22T08:38:51Z</time>
      </trkpt>
      <trkpt lat="47.29447" lon="4.9255">
        <ele>654</ele>
        <time>2012-12-22T08:38:58Z</time>
      </trkpt>
      <trkpt lat="47.29442" lon="4.92547">
        <ele>655</ele>
        <time>2012-12-22T08:39:02Z</time>
      </trkpt>
      <trkpt lat="47.29437" lon="4.92545">
        <ele>654</ele>
        <time>2012-12-22T08:39:05Z</time>
      </trkpt>
      <trkpt lat="47.29431" lon="4.92542">
        <ele>653</ele>
        <time>2012-12-22T08:39:08Z</time>
      </trkpt>
      <trkpt lat="47.29425" lon="4.9254">
        <ele>652</ele>
        <time>2012-12-22T08:39:11Z</time>
      </trkpt>
      <trkpt lat="47.2942" lon="4.92538">
        <ele>652</ele>
        <time>2012-12-22T08:39:14Z</time>
      </trkpt>
      <trkpt lat="47.29416" lon="4.92535">
        <ele>652</ele>
        <time>2012-12-22T08:39:17Z</time>
      </trkpt>
      <trkpt lat="47.29411" lon="4.92532">
        <ele>652</ele>
        <time>2012-12-22T08:39:20Z</time>
      </trkpt>
      <trkpt lat="47.29407" lon="4.9253">
        <ele>652</ele>
        <time>2012-12-22T08:39:24Z</time>
      </trkpt>
      <trkpt lat="47.29402" lon="4.92527">
        <ele>652</ele>
        <time>2012-12-22T08:39:27Z</time>
      </trkpt>
      <trkpt lat="47.29398" lon="4.92523">
        <ele>653</ele>
        <time>2012-12-22T08:39:31Z</time>
      </trkpt>
      <trkpt lat="47.29392" lon="4.9252">
        <ele>652</ele>
        <time>2012-12-22T08:39:34Z</time>
      </trkpt>
      <trkpt lat="47.29387" lon="4.92517">
        <ele>652</ele>
        <time>2012-12-22T08:39:37Z</time>
      </trkpt>
      <trkpt lat="47.29382" lon="4.92514">
        <ele>652</ele>
        <time>2012-12-22T08:39:40Z</time>
      </trkpt>
      <trkpt lat="47.29377" lon="4.9251">
        <ele>652</ele>
        <time>2012-12-22T08:39:44Z</time>
      </trkpt>
      <trkpt lat="47.29372" lon="4.92506">
        <ele>654</ele>
        <time>2012-12-22T08:39:49Z</time>
      </trkpt>
      <trkpt lat="47.29367" lon="4.92501">
        <ele>654</ele>
        <time>2012-12-22T08:39:53Z</time>
      </trkpt>
      <trkpt lat="47.29364" lon="4.92496">
        <ele>654</ele>
        <time>2012-12-22T08:39:56Z</time>
      </trkpt>
      <trkpt lat="47.29359" lon="4.9249">
        <ele>653</ele>
        <time>2012-12-22T08:40:00Z</time>
      </trkpt>
      <trkpt lat="47.29356" lon="4.92485">
        <ele>651</ele>
        <time>2012-12-22T08:40:03Z</time>
      </trkpt>
      <trkpt lat="47.29351" lon="4.92479">
        <ele>651</ele>
        <time>2012-12-22T08:40:07Z</time>
      </trkpt>
      <trkpt lat="47.29347" lon="4.92474">
        <ele>651</ele>
        <time>2012-12-22T08:40:11Z</time>
      </trkpt>
      <trkpt lat="47.29343" lon="4.92469">
        <ele>649</ele>
        <time>2012-12-22T08:40:14Z</time>
      </trkpt>
      <trkpt lat="47.2934" lon="4.92464">
        <ele>648</ele>
        <time>2012-12-22T08:40:18Z</time>
      </trkpt>
      <trkpt lat="47.29336" lon="4.92458">
        <ele>647</ele>
        <time>2012-12-22T08:40:22Z</time>
      </trkpt>
      <trkpt lat="47.29332" lon="4.92454">
        <ele>648</ele>
        <time>2012-12-22T08:40:26Z</time>
      </trkpt>
      <trkpt lat="47.29328" lon="4.92449">
        <ele>649</ele>
        <time>2012-12-22T08:40:30Z</time>
      </trkpt>
      <trkpt lat="47.29322" lon="4.92447">
        <ele>648</ele>
        <time>2012-12-22T08:40:34Z</time>
      </trkpt>
      <trkpt lat="47.29318" lon="4.92444">
        <ele>650</ele>
        <time>2012-12-22T08:40:38Z</time>
      </trkpt>
      <trkpt lat="47.29314" lon="4.9244">
        <ele>650</ele>
        <time>2012-12-22T08:40:42Z</time>
      </trkpt>
      <trkpt lat="47.2931" lon="4.92435">
        <ele>651</ele>
        <time>2012-12-22T08:40:45Z</time>
      </trkpt>
      <trkpt lat="47.29306" lon="4.92432">
        <ele>651</ele>
        <time>2012-12-22T08:40:48Z</time>
      </trkpt>
      <trkpt lat="47.293" lon="4.92428">
        <ele>650</ele>
        <time>2012-12-22T08:40:54Z</time>
      </trkpt>
      <trkpt lat="47.29295" lon="4.92425">
        <ele>650</ele>
        <time>2012-12-22T08:40:56Z</time>
      </trkpt>
      <trkpt lat="47.29291" lon="4.92421">
        <ele>648</ele>
        <time>2012-12-22T08:40:59Z</time>
      </trkpt>
      <trkpt lat="47.29286" lon="4.92416">
        <ele>649</ele>
        <time>2012-12-22T08:41:03Z</time>
      </trkpt>
      <trkpt lat="47.29282" lon="4.92413">
        <ele>648</ele>
        <time>2012-12-22T08:41:06Z</time>
      </trkpt>
      <trkpt lat="47.29277" lon="4.92408">
        <ele>651</ele>
        <time>2012-12-22T08:41:11Z</time>
      </trkpt>
      <trkpt lat="47.29272" lon="4.92405">
        <ele>651</ele>
        <time>2012-12-22T08:41:14Z</time>
      </trkpt>
      <trkpt lat="47.29268" lon="4.92401">
        <ele>651</ele>
        <time>2012-12-22T08:41:17Z</time>
      </trkpt>
      <trkpt lat="47.29264" lon="4.92397">
        <ele>651</ele>
        <time>2012-12-22T08:41:20Z</time>
      </trkpt>
      <trkpt lat="47.2926" lon="4.92393">
        <ele>649</ele>
        <time>2012-12-22T08:41:24Z</time>
      </trkpt>
      <trkpt lat="47.29254" lon="4.9239">
        <ele>649</ele>
        <time>2012-12-22T08:41:27Z</time>
      </trkpt>
      <trkpt lat="47.29249" lon="4.92387">
        <ele>650</ele>
        <time>2012-12-22T08:41:30Z</time>
      </trkpt>
      <trkpt lat="47.29246" lon="4.92383">
        <ele>650</ele>
        <time>2012-12-22T08:41:34Z</time>
      </trkpt>
      <trkpt lat="47.29241" lon="4.92378">
        <ele>651</ele>
        <time>2012-12-22T08:41:38Z</time>
      </trkpt>
      <trkpt lat="47.29236" lon="4.92373">
        <ele>653</ele>
        <time>2012-12-22T08:41:42Z</time>
      </trkpt>
      <trkpt lat="47.29231" lon="4.92368">
        <ele>654</ele>
        <time>2012-12-22T08:41:46Z</time>
      </trkpt>
      <trkpt lat="47.29226" lon="4.92363">
        <ele>653</ele>
        <time>2012-12-22T08:41:50Z</time>
      </trkpt>
      <trkpt lat="47.29222" lon="4.92359">
        <ele>653</ele>
        <time>2012-12-22T08:41:54Z</time>
      </trkpt>
      <trkpt lat="47.29217" lon="4.92356">
        <ele>654</ele>
        <time>2012-12-22T08:41:58Z</time>
      </trkpt>
      <trkpt lat="47.29214" lon="4.92352">
        <ele>653</ele>
        <time>2012-12-22T08:42:02Z</time>
      </trkpt>
      <trkpt lat="47.29208" lon="4.92348">
        <ele>652</ele>
        <time>2012-12-22T08:42:05Z</time>
      </trkpt>
      <trkpt lat="47.29202" lon="4.92347">
        <ele>652</ele>
        <time>2012-12-22T08:42:09Z</time>
      </trkpt>
      <trkpt lat="47.29197" lon="4.92346">
        <ele>651</ele>
        <time>2012-12-22T08:42:12Z</time>
      </trkpt>
      <trkpt lat="47.29191" lon="4.92343">
        <ele>649</ele>
        <time>2012-12-22T08:42:15Z</time>
      </trkpt>
      <trkpt lat="47.29186" lon="4.92342">
        <ele>648</ele>
        <time>2012-12-22T08:42:18Z</time>
      </trkpt>
      <trkpt lat="47.29181" lon="4.92341">
        <ele>648</ele>
        <time>2012-12-22T08:42:22Z</time>
      </trkpt>
      <trkpt lat="47.29176" lon="4.9234">
        <ele>648</ele>
        <time>2012-12-22T08:42:26Z</time>
      </trkpt>
      <trkpt lat="47.29171" lon="4.9234">
        <ele>649</ele>
        <time>2012-12-22T08:42:30Z</time>
      </trkpt>
      <trkpt lat="47.29166" lon="4.9234">
        <ele>648</ele>
        <time>2012-12-22T08:42:33Z</time>
      </trkpt>
      <trkpt lat="47.2916" lon="4.9234">
        <ele>648</ele>
        <time>2012-12-22T08:42:37Z</time>
      </trkpt>
      <trkpt lat="47.29155" lon="4.9234">
        <ele>648</ele>
        <time>2012-12-22T08:42:41Z</time>
      </trkpt>
      <trkpt lat="47.2915" lon="4.9234">
        <ele>648</ele>
        <time>2012-12-22T08:42:44Z</time>
      </trkpt>
      <trkpt lat="47.29145" lon="4.92341">
        <ele>647</ele>
        <time>2012-12-22T08:42:47Z</time>
      </trkpt>
      <trkpt lat="47.2914" lon="4.9234">
        <ele>648</ele>
        <time>2012-12-22T08:42:51Z</time>
      </trkpt>
      <trkpt lat="47.29136" lon="4.92339">
        <ele>650</ele>
        <time>2012-12-22T08:42:57Z</time>
      </trkpt>
      <trkpt lat="47.2913" lon="4.92338">
        <ele>650</ele>
        <time>2012-12-22T08:43:00Z</time>
      </trkpt>
      <trkpt lat="47.29125" lon="4.92338">
        <ele>650</ele>
        <time>2012-12-22T08:43:04Z</time>
      </trkpt>
      <trkpt lat="47.2912" lon="4.92338">
        <ele>650</ele>
        <time>2012-12-22T08:43:06Z</time>
      </trkpt>
      <trkpt lat="47.29114" lon="4.92336">
        <ele>648</ele>
        <time>2012-12-22T08:43:10Z</time>
      </trkpt>
      <trkpt lat="47.29107" lon="4.92336">
        <ele>647</ele>
        <time>2012-12-22T08:43:13Z</time>
      </trkpt>
      <trkpt lat="47.29102" lon="4.92335">
        <ele>646</ele>
        <time>2012-12-22T08:43:15Z</time>
      </trkpt>
      <trkpt lat="47.29097" lon="4.92334">
        <ele>645</ele>
        <time>2012-12-22T08:43:17Z</time>
      </trkpt>
      <trkpt lat="47.29092" lon="4.92333">
        <ele>645</ele>
        <time>2012-12-22T08:43:20Z</time>
      </trkpt>
      <trkpt lat="47.29086" lon="4.92331">
        <ele>644</ele>
        <time>2012-12-22T08:43:24Z</time>
      </trkpt>
      <trkpt lat="47.2908" lon="4.9233">
        <ele>643</ele>
        <time>2012-12-22T08:43:27Z</time>
      </trkpt>
      <trkpt lat="47.29075" lon="4.92327">
        <ele>645</ele>
        <time>2012-12-22T08:43:33Z</time>
      </trkpt>
      <trkpt lat="47.2907" lon="4.92324">
        <ele>645</ele>
        <time>2012-12-22T08:43:38Z</time>
      </trkpt>
      <trkpt lat="47.29064" lon="4.92323">
        <ele>644</ele>
        <time>2012-12-22T08:43:41Z</time>
      </trkpt>
      <trkpt lat="47.29058" lon="4.92322">
        <ele>645</ele>
        <time>2012-12-22T08:43:45Z</time>
      </trkpt>
      <trkpt lat="47.29052" lon="4.92319">
        <ele>644</ele>
        <time>2012-12-22T08:43:50Z</time>
      </trkpt>
      <trkpt lat="47.29047" lon="4.92316">
        <ele>646</ele>
        <time>2012-12-22T08:43:55Z</time>
      </trkpt>
      <trkpt lat="47.29042" lon="4.92314">
        <ele>646</ele>
        <time>2012-12-22T08:43:59Z</time>
      </trkpt>
      <trkpt lat="47.29036" lon="4.92311">
        <ele>647</ele>
        <time>2012-12-22T08:44:03Z</time>
      </trkpt>
      <trkpt lat="47.29032" lon="4.92311">
        <ele>648</ele>
        <time>2012-12-22T08:44:06Z</time>
      </trkpt>
      <trkpt lat="47.29027" lon="4.92308">
        <ele>646</ele>
        <time>2012-12-22T08:44:09Z</time>
      </trkpt>
      <trkpt lat="47.29021" lon="4.92306">
        <ele>646</ele>
        <time>2012-12-22T08:44:13Z</time>
      </trkpt>
      <trkpt lat="47.29015" lon="4.92305">
        <ele>645</ele>
        <time>2012-12-22T08:44:17Z</time>
      </trkpt>
      <trkpt lat="47.2901" lon="4.92303">
        <ele>645</ele>
        <time>2012-12-22T08:44:21Z</time>
      </trkpt>
      <trkpt lat="47.29003" lon="4.92302">
        <ele>644</ele>
        <time>2012-12-22T08:44:24Z</time>
      </trkpt>
      <trkpt lat="47.28998" lon="4.923">
        <ele>645</ele>
        <time>2012-12-22T08:44:29Z</time>
      </trkpt>
      <trkpt lat="47.28992" lon="4.92297">
        <ele>646</ele>
        <time>2012-12-22T08:44:34Z</time>
      </trkpt>
      <trkpt lat="47.28986" lon="4.92294">
        <ele>646</ele>
        <time>2012-12-22T08:44:39Z</time>
      </trkpt>
      <trkpt lat="47.2898" lon="4.92293">
        <ele>646</ele>
        <time>2012-12-22T08:44:43Z</time>
      </trkpt>
      <trkpt lat="47.28975" lon="4.92292">
        <ele>647</ele>
        <time>2012-12-22T08:44:46Z</time>
      </trkpt>
      <trkpt lat="47.2897" lon="4.92288">
        <ele>648</ele>
        <time>2012-12-22T08:44:50Z</time>
      </trkpt>
      <trkpt lat="47.28966" lon="4.92285">
        <ele>647</ele>
        <time>2012-12-22T08:44:53Z</time>
      </trkpt>
      <trkpt lat="47.28962" lon="4.92279">
        <ele>649</ele>
        <time>2012-12-22T08:44:59Z</time>
      </trkpt>
      <trkpt lat="47.28957" lon="4.92275">
        <ele>651</ele>
        <time>2012-12-22T08:45:04Z</time>
      </trkpt>
      <trkpt lat="47.28952" lon="4.92273">
        <ele>650</ele>
        <time>2012-12-22T08:45:07Z</time>
      </trkpt>
      <trkpt lat="47.28946" lon="4.92269">
        <ele>651</ele>
        <time>2012-12-22T08:45:12Z</time>
      </trkpt>
      <trkpt lat="47.28943" lon="4.92263">
        <ele>651</ele>
        <time>2012-12-22T08:45:16Z</time>
      </trkpt>
      <trkpt lat="47.28939" lon="4.92259">
        <ele>652</ele>
        <time>2012-12-22T08:45:20Z</time>
      </trkpt>
      <trkpt lat="47.28934" lon="4.92254">
        <ele>652</ele>
        <time>2012-12-22T08:45:24Z</time>
      </trkpt>
      <trkpt lat="47.28928" lon="4.9225">
        <ele>654</ele>
        <time>2012-12-22T08:45:28Z</time>
      </trkpt>
      <trkpt lat="47.28924" lon="4.92245">
        <ele>655</ele>
        <time>2012-12-22T08:45:31Z</time>
      </trkpt>
      <trkpt lat="47.2892" lon="4.92242">
        <ele>654</ele>
        <time>2012-12-22T08:45:34Z</time>
      </trkpt>
      <trkpt lat="47.28915" lon="4.92238">
        <ele>653</ele>
        <time>2012-12-22T08:45:37Z</time>
      </trkpt>
      <trkpt lat="47.28911" lon="4.92234">
        <ele>653</ele>
        <time>2012-12-22T08:45:40Z</time>
      </trkpt>
      <trkpt lat="47.28911" lon="4.92234">
        <ele>653</ele>
        <time>2012-12-22T08:45:40Z</time>
      </trkpt>
      <trkpt lat="47.28911" lon="4.92234">
        <ele>653</ele>
        <time>2012-12-22T08:45:41Z</time>
      </trkpt>
      <trkpt lat="47.28906" lon="4.92229">
        <ele>654</ele>
        <time>2012-12-22T08:45:45Z</time>
      </trkpt>
      <trkpt lat="47.28901" lon="4.92226">
        <ele>654</ele>
        <time>2012-12-22T08:45:51Z</time>
      </trkpt>
      <trkpt lat="47.28896" lon="4.92219">
        <ele>653</ele>
        <time>2012-12-22T08:45:54Z</time>
      </trkpt>
      <trkpt lat="47.28892" lon="4.92215">
        <ele>653</ele>
        <time>2012-12-22T08:45:57Z</time>
      </trkpt>
      <trkpt lat="47.28887" lon="4.92212">
        <ele>653</ele>
        <time>2012-12-22T08:46:00Z</time>
      </trkpt>
      <trkpt lat="47.28882" lon="4.92208">
        <ele>653</ele>
        <time>2012-12-22T08:46:03Z</time>
      </trkpt>
      <trkpt lat="47.28877" lon="4.92205">
        <ele>653</ele>
        <time>2012-12-22T08:46:06Z</time>
      </trkpt>
      <trkpt lat="47.28872" lon="4.92199">
        <ele>652</ele>
        <time>2012-12-22T08:46:10Z</time>
      </trkpt>
      <trkpt lat="47.28868" lon="4.92197">
        <ele>653</ele>
        <time>2012-12-22T08:46:14Z</time>
      </trkpt>
      <trkpt lat="47.28863" lon="4.92192">
        <ele>654</ele>
        <time>2012-12-22T08:46:18Z</time>
      </trkpt>
      <trkpt lat="47.28857" lon="4.92188">
        <ele>654</ele>
        <time>2012-12-22T08:46:20Z</time>
      </trkpt>
      <trkpt lat="47.28852" lon="4.92184">
        <ele>656</ele>
        <time>2012-12-22T08:46:23Z</time>
      </trkpt>
      <trkpt lat="47.28844" lon="4.92181">
        <ele>656</ele>
        <time>2012-12-22T08:46:27Z</time>
      </trkpt>
      <trkpt lat="47.2884" lon="4.92178">
        <ele>657</ele>
        <time>2012-12-22T08:46:29Z</time>
      </trkpt>
      <trkpt lat="47.28835" lon="4.92176">
        <ele>657</ele>
        <time>2012-12-22T08:46:31Z</time>
      </trkpt>
      <trkpt lat="47.28829" lon="4.92174">
        <ele>657</ele>
        <time>2012-12-22T08:46:34Z</time>
      </trkpt>
      <trkpt lat="47.28829" lon="4.92174">
        <ele>657</ele>
        <time>2012-12-22T08:46:34Z</time>
      </trkpt>
      <trkpt lat="47.28829" lon="4.92174">
        <ele>657</ele>
        <time>2012-12-22T08:46:35Z</time>
      </trkpt>
      <trkpt lat="47.28823" lon="4.92171">
        <ele>655</ele>
        <time>2012-12-22T08:46:38Z</time>
      </trkpt>
      <trkpt lat="47.28819" lon="4.92167">
        <ele>655</ele>
        <time>2012-12-22T08:46:40Z</time>
      </trkpt>
      <trkpt lat="47.28812" lon="4.92167">
        <ele>655</ele>
        <time>2012-12-22T08:46:42Z</time>
      </trkpt>
      <trkpt lat="47.28806" lon="4.92165">
        <ele>657</ele>
        <time>2012-12-22T08:46:45Z</time>
      </trkpt>
      <trkpt lat="47.28802" lon="4.92162">
        <ele>656</ele>
        <time>2012-12-22T08:46:48Z</time>
      </trkpt>
      <trkpt lat="47.28796" lon="4.9216">
        <ele>655</ele>
        <time>2012-12-22T08:46:50Z</time>
      </trkpt>
      <trkpt lat="47.2879" lon="4.92157">
        <ele>655</ele>
        <time>2012-12-22T08:46:51Z</time>
      </trkpt>
      <trkpt lat="47.28785" lon="4.92154">
        <ele>655</ele>
        <time>2012-12-22T08:46:54Z</time>
      </trkpt>
      <trkpt lat="47.28777" lon="4.92152">
        <ele>656</ele>
        <time>2012-12-22T08:46:57Z</time>
      </trkpt>
      <trkpt lat="47.28772" lon="4.92151">
        <ele>657</ele>
        <time>2012-12-22T08:47:00Z</time>
      </trkpt>
      <trkpt lat="47.28767" lon="4.9215">
        <ele>657</ele>
        <time>2012-12-22T08:47:02Z</time>
      </trkpt>
      <trkpt lat="47.2876" lon="4.92148">
        <ele>657</ele>
        <time>2012-12-22T08:47:05Z</time>
      </trkpt>
      <trkpt lat="47.28754" lon="4.92146">
        <ele>656</ele>
        <time>2012-12-22T08:47:08Z</time>
      </trkpt>
      <trkpt lat="47.2875" lon="4.92144">
        <ele>655</ele>
        <time>2012-12-22T08:47:10Z</time>
      </trkpt>
      <trkpt lat="47.28742" lon="4.92142">
        <ele>654</ele>
        <time>2012-12-22T08:47:13Z</time>
      </trkpt>
      <trkpt lat="47.28734" lon="4.92142">
        <ele>654</ele>
        <time>2012-12-22T08:47:16Z</time>
      </trkpt>
      <trkpt lat="47.28729" lon="4.9214">
        <ele>654</ele>
        <time>2012-12-22T08:47:18Z</time>
      </trkpt>
      <trkpt lat="47.28724" lon="4.9214">
        <ele>653</ele>
        <time>2012-12-22T08:47:20Z</time>
      </trkpt>
      <trkpt lat="47.28717" lon="4.92139">
        <ele>653</ele>
        <time>2012-12-22T08:47:22Z</time>
      </trkpt>
      <trkpt lat="47.2871" lon="4.92137">
        <ele>652</ele>
        <time>2012-12-22T08:47:25Z</time>
      </trkpt>
      <trkpt lat="47.28705" lon="4.92135">
        <ele>653</ele>
        <time>2012-12-22T08:47:28Z</time>
      </trkpt>
      <trkpt lat="47.28699" lon="4.92133">
        <ele>653</ele>
        <time>2012-12-22T08:47:32Z</time>
      </trkpt>
      <trkpt lat="47.28693" lon="4.92133">
        <ele>654</ele>
        <time>2012-12-22T08:47:34Z</time>
      </trkpt>
      <trkpt lat="47.28688" lon="4.92132">
        <ele>654</ele>
        <time>2012-12-22T08:47:36Z</time>
      </trkpt>
      <trkpt lat="47.28683" lon="4.92132">
        <ele>655</ele>
        <time>2012-12-22T08:47:39Z</time>
      </trkpt>
      <trkpt lat="47.28678" lon="4.92131">
        <ele>657</ele>
        <time>2012-12-22T08:47:42Z</time>
      </trkpt>
      <trkpt lat="47.28671" lon="4.9213">
        <ele>660</ele>
        <time>2012-12-22T08:47:46Z</time>
      </trkpt>
      <trkpt lat="47.28666" lon="4.92129">
        <ele>660</ele>
        <time>2012-12-22T08:47:48Z</time>
      </trkpt>
      <trkpt lat="47.28661" lon="4.92128">
        <ele>659</ele>
        <time>2012-12-22T08:47:50Z</time>
      </trkpt>
      <trkpt lat="47.28655" lon="4.92126">
        <ele>657</ele>
        <time>2012-12-22T08:47:53Z</time>
      </trkpt>
      <trkpt lat="47.28649" lon="4.92125">
        <ele>655</ele>
        <time>2012-12-22T08:47:56Z</time>
      </trkpt>
      <trkpt lat="47.28642" lon="4.92123">
        <ele>655</ele>
        <time>2012-12-22T08:47:59Z</time>
      </trkpt>
      <trkpt lat="47.28637" lon="4.92124">
        <ele>659</ele>
        <time>2012-12-22T08:48:03Z</time>
      </trkpt>
      <trkpt lat="47.28632" lon="4.92122">
        <ele>658</ele>
        <time>2012-12-22T08:48:06Z</time>
      </trkpt>
      <trkpt lat="47.28626" lon="4.9212">
        <ele>656</ele>
        <time>2012-12-22T08:48:09Z</time>
      </trkpt>
      <trkpt lat="47.28618" lon="4.92118">
        <ele>654</ele>
        <time>2012-12-22T08:48:11Z</time>
      </trkpt>
      <trkpt lat="47.2861" lon="4.92115">
        <ele>653</ele>
        <time>2012-12-22T08:48:13Z</time>
      </trkpt>
      <trkpt lat="47.28606" lon="4.92116">
        <ele>652</ele>
        <time>2012-12-22T08:48:15Z</time>
      </trkpt>
      <trkpt lat="47.28601" lon="4.92116">
        <ele>651</ele>
        <time>2012-12-22T08:48:17Z</time>
      </trkpt>
      <trkpt lat="47.28595" lon="4.92114">
        <ele>650</ele>
        <time>2012-12-22T08:48:19Z</time>
      </trkpt>
      <trkpt lat="47.2859" lon="4.92113">
        <ele>650</ele>
        <time>2012-12-22T08:48:22Z</time>
      </trkpt>
      <trkpt lat="47.28585" lon="4.92112">
        <ele>649</ele>
        <time>2012-12-22T08:48:25Z</time>
      </trkpt>
      <trkpt lat="47.28579" lon="4.92115">
        <ele>654</ele>
        <time>2012-12-22T08:48:32Z</time>
      </trkpt>
      <trkpt lat="47.28575" lon="4.92112">
        <ele>655</ele>
        <time>2012-12-22T08:48:35Z</time>
      </trkpt>
      <trkpt lat="47.28569" lon="4.92109">
        <ele>656</ele>
        <time>2012-12-22T08:48:38Z</time>
      </trkpt>
      <trkpt lat="47.28564" lon="4.92107">
        <ele>657</ele>
        <time>2012-12-22T08:48:40Z</time>
      </trkpt>
      <trkpt lat="47.28558" lon="4.92106">
        <ele>657</ele>
        <time>2012-12-22T08:48:42Z</time>
      </trkpt>
      <trkpt lat="47.28553" lon="4.92105">
        <ele>656</ele>
        <time>2012-12-22T08:48:44Z</time>
      </trkpt>
      <trkpt lat="47.28546" lon="4.92102">
        <ele>655</ele>
        <time>2012-12-22T08:48:46Z</time>
      </trkpt>
      <trkpt lat="47.28538" lon="4.921">
        <ele>654</ele>
        <time>2012-12-22T08:48:50Z</time>
      </trkpt>
      <trkpt lat="47.28533" lon="4.921">
        <ele>652</ele>
        <time>2012-12-22T08:48:52Z</time>
      </trkpt>
      <trkpt lat="47.28527" lon="4.92096">
        <ele>650</ele>
        <time>2012-12-22T08:48:54Z</time>
      </trkpt>
      <trkpt lat="47.28521" lon="4.92092">
        <ele>649</ele>
        <time>2012-12-22T08:48:56Z</time>
      </trkpt>
      <trkpt lat="47.28516" lon="4.9209">
        <ele>648</ele>
        <time>2012-12-22T08:48:58Z</time>
      </trkpt>
      <trkpt lat="47.2851" lon="4.92088">
        <ele>646</ele>
        <time>2012-12-22T08:49:01Z</time>
      </trkpt>
      <trkpt lat="47.28505" lon="4.92086">
        <ele>645</ele>
        <time>2012-12-22T08:49:03Z</time>
      </trkpt>
      <trkpt lat="47.285" lon="4.92085">
        <ele>644</ele>
        <time>2012-12-22T08:49:06Z</time>
      </trkpt>
      <trkpt lat="47.28494" lon="4.92083">
        <ele>643</ele>
        <time>2012-12-22T08:49:09Z</time>
      </trkpt>
      <trkpt lat="47.28487" lon="4.92082">
        <ele>642</ele>
        <time>2012-12-22T08:49:12Z</time>
      </trkpt>
      <trkpt lat="47.28482" lon="4.92081">
        <ele>641</ele>
        <time>2012-12-22T08:49:14Z</time>
      </trkpt>
      <trkpt lat="47.28476" lon="4.92078">
        <ele>639</ele>
        <time>2012-12-22T08:49:16Z</time>
      </trkpt>
      <trkpt lat="47.2847" lon="4.92077">
        <ele>639</ele>
        <time>2012-12-22T08:49:19Z</time>
      </trkpt>
      <trkpt lat="47.28464" lon="4.92075">
        <ele>638</ele>
        <time>2012-12-22T08:49:22Z</time>
      </trkpt>
      <trkpt lat="47.28458" lon="4.92075">
        <ele>638</ele>
        <time>2012-12-22T08:49:25Z</time>
      </trkpt>
      <trkpt lat="47.28453" lon="4.92071">
        <ele>637</ele>
        <time>2012-12-22T08:49:29Z</time>
      </trkpt>
      <trkpt lat="47.2845" lon="4.92064">
        <ele>640</ele>
        <time>2012-12-22T08:49:38Z</time>
      </trkpt>
      <trkpt lat="47.28448" lon="4.92058">
        <ele>639</ele>
        <time>2012-12-22T08:49:41Z</time>
      </trkpt>
      <trkpt lat="47.28444" lon="4.92052">
        <ele>638</ele>
        <time>2012-12-22T08:49:44Z</time>
      </trkpt>
      <trkpt lat="47.28439" lon="4.92051">
        <ele>637</ele>
        <time>2012-12-22T08:49:46Z</time>
      </trkpt>
      <trkpt lat="47.28429" lon="4.92051">
        <ele>637</ele>
        <time>2012-12-22T08:49:50Z</time>
      </trkpt>
      <trkpt lat="47.28424" lon="4.92051">
        <ele>638</ele>
        <time>2012-12-22T08:49:53Z</time>
      </trkpt>
      <trkpt lat="47.2842" lon="4.92056">
        <ele>639</ele>
        <time>2012-12-22T08:49:58Z</time>
      </trkpt>
      <trkpt lat="47.28416" lon="4.9206">
        <ele>640</ele>
        <time>2012-12-22T08:50:01Z</time>
      </trkpt>
      <trkpt lat="47.28418" lon="4.92067">
        <ele>641</ele>
        <time>2012-12-22T08:50:07Z</time>
      </trkpt>
      <trkpt lat="47.28423" lon="4.92067">
        <ele>642</ele>
        <time>2012-12-22T08:50:11Z</time>
      </trkpt>
      <trkpt lat="47.28429" lon="4.92067">
        <ele>641</ele>
        <time>2012-12-22T08:50:16Z</time>
      </trkpt>
      <trkpt lat="47.28434" lon="4.92067">
        <ele>640</ele>
        <time>2012-12-22T08:50:19Z</time>
      </trkpt>
      <trkpt lat="47.28439" lon="4.92068">
        <ele>640</ele>
        <time>2012-12-22T08:50:22Z</time>
      </trkpt>
      <trkpt lat="47.28443" lon="4.9207">
        <ele>639</ele>
        <time>2012-12-22T08:50:24Z</time>
      </trkpt>
      <trkpt lat="47.28448" lon="4.9207">
        <ele>638</ele>
        <time>2012-12-22T08:50:28Z</time>
      </trkpt>
      <trkpt lat="47.28447" lon="4.92064">
        <ele>636</ele>
        <time>2012-12-22T08:51:05Z</time>
      </trkpt>
      <trkpt lat="47.28444" lon="4.92057">
        <ele>637</ele>
        <time>2012-12-22T08:51:11Z</time>
      </trkpt>
      <trkpt lat="47.2844" lon="4.92052">
        <ele>637</ele>
        <time>2012-12-22T08:51:17Z</time>
      </trkpt>
      <trkpt lat="47.2844" lon="4.92052">
        <ele>637</ele>
        <time>2012-12-22T08:51:17Z</time>
      </trkpt>
      <trkpt lat="47.2844" lon="4.92052">
        <ele>637</ele>
        <time>2012-12-22T08:51:19Z</time>
      </trkpt>
      <trkpt lat="47.28436" lon="4.92046">
        <ele>637</ele>
        <time>2012-12-22T08:51:22Z</time>
      </trkpt>
      <trkpt lat="47.28434" lon="4.92038">
        <ele>636</ele>
        <time>2012-12-22T08:51:25Z</time>
      </trkpt>
      <trkpt lat="47.28429" lon="4.92034">
        <ele>636</ele>
        <time>2012-12-22T08:51:28Z</time>
      </trkpt>
      <trkpt lat="47.28424" lon="4.92031">
        <ele>632</ele>
        <time>2012-12-22T08:51:32Z</time>
      </trkpt>
      <trkpt lat="47.28419" lon="4.92026">
        <ele>631</ele>
        <time>2012-12-22T08:51:36Z</time>
      </trkpt>
      <trkpt lat="47.28415" lon="4.92021">
        <ele>629</ele>
        <time>2012-12-22T08:51:40Z</time>
      </trkpt>
      <trkpt lat="47.28415" lon="4.92021">
        <ele>629</ele>
        <time>2012-12-22T08:51:40Z</time>
      </trkpt>
      <trkpt lat="47.28415" lon="4.92021">
        <ele>629</ele>
        <time>2012-12-22T08:51:41Z</time>
      </trkpt>
      <trkpt lat="47.28411" lon="4.92017">
        <ele>630</ele>
        <time>2012-12-22T08:51:44Z</time>
      </trkpt>
      <trkpt lat="47.28405" lon="4.92013">
        <ele>628</ele>
        <time>2012-12-22T08:51:50Z</time>
      </trkpt>
      <trkpt lat="47.28401" lon="4.92009">
        <ele>629</ele>
        <time>2012-12-22T08:51:54Z</time>
      </trkpt>
      <trkpt lat="47.28398" lon="4.92003">
        <ele>629</ele>
        <time>2012-12-22T08:51:58Z</time>
      </trkpt>
      <trkpt lat="47.28394" lon="4.91995">
        <ele>629</ele>
        <time>2012-12-22T08:52:01Z</time>
      </trkpt>
      <trkpt lat="47.28389" lon="4.9199">
        <ele>628</ele>
        <time>2012-12-22T08:52:05Z</time>
      </trkpt>
      <trkpt lat="47.28383" lon="4.91984">
        <ele>627</ele>
        <time>2012-12-22T08:52:09Z</time>
      </trkpt>
      <trkpt lat="47.28377" lon="4.9198">
        <ele>626</ele>
        <time>2012-12-22T08:52:11Z</time>
      </trkpt>
      <trkpt lat="47.28373" lon="4.91975">
        <ele>625</ele>
        <time>2012-12-22T08:52:14Z</time>
      </trkpt>
      <trkpt lat="47.28368" lon="4.91972">
        <ele>623</ele>
        <time>2012-12-22T08:52:16Z</time>
      </trkpt>
      <trkpt lat="47.28362" lon="4.91969">
        <ele>621</ele>
        <time>2012-12-22T08:52:18Z</time>
      </trkpt>
      <trkpt lat="47.28357" lon="4.91958">
        <ele>618</ele>
        <time>2012-12-22T08:52:30Z</time>
      </trkpt>
      <trkpt lat="47.28356" lon="4.91951">
        <ele>613</ele>
        <time>2012-12-22T08:52:33Z</time>
      </trkpt>
      <trkpt lat="47.2836" lon="4.91952">
        <ele>616</ele>
        <time>2012-12-22T08:52:47Z</time>
      </trkpt>
      <trkpt lat="47.2836" lon="4.91952">
        <ele>616</ele>
        <time>2012-12-22T08:52:47Z</time>
      </trkpt>
      <trkpt lat="47.2836" lon="4.91952">
        <ele>616</ele>
        <time>2012-12-22T08:52:48Z</time>
      </trkpt>
      <trkpt lat="47.28364" lon="4.9194">
        <ele>610</ele>
        <time>2012-12-22T08:52:54Z</time>
      </trkpt>
      <trkpt lat="47.28363" lon="4.91933">
        <ele>608</ele>
        <time>2012-12-22T08:52:57Z</time>
      </trkpt>
      <trkpt lat="47.2836" lon="4.91938">
        <ele>609</ele>
        <time>2012-12-22T08:53:18Z</time>
      </trkpt>
      <trkpt lat="47.28356" lon="4.91943">
        <ele>612</ele>
        <time>2012-12-22T08:53:31Z</time>
      </trkpt>
      <trkpt lat="47.28358" lon="4.9195">
        <ele>612</ele>
        <time>2012-12-22T08:53:35Z</time>
      </trkpt>
      <trkpt lat="47.28352" lon="4.91952">
        <ele>611</ele>
        <time>2012-12-22T08:53:47Z</time>
      </trkpt>
      <trkpt lat="47.28348" lon="4.91949">
        <ele>612</ele>
        <time>2012-12-22T08:53:54Z</time>
      </trkpt>
      <trkpt lat="47.28343" lon="4.91943">
        <ele>612</ele>
        <time>2012-12-22T08:54:01Z</time>
      </trkpt>
      <trkpt lat="47.28338" lon="4.91938">
        <ele>612</ele>
        <time>2012-12-22T08:54:04Z</time>
      </trkpt>
      <trkpt lat="47.28333" lon="4.91932">
        <ele>611</ele>
        <time>2012-12-22T08:54:07Z</time>
      </trkpt>
      <trkpt lat="47.28328" lon="4.91927">
        <ele>610</ele>
        <time>2012-12-22T08:54:10Z</time>
      </trkpt>
      <trkpt lat="47.28324" lon="4.91921">
        <ele>612</ele>
        <time>2012-12-22T08:54:12Z</time>
      </trkpt>
      <trkpt lat="47.2832" lon="4.91916">
        <ele>612</ele>
        <time>2012-12-22T08:54:15Z</time>
      </trkpt>
      <trkpt lat="47.28315" lon="4.91912">
        <ele>611</ele>
        <time>2012-12-22T08:54:19Z</time>
      </trkpt>
      <trkpt lat="47.28311" lon="4.91908">
        <ele>609</ele>
        <time>2012-12-22T08:54:22Z</time>
      </trkpt>
      <trkpt lat="47.28303" lon="4.91901">
        <ele>609</ele>
        <time>2012-12-22T08:54:25Z</time>
      </trkpt>
      <trkpt lat="47.28299" lon="4.91898">
        <ele>609</ele>
        <time>2012-12-22T08:54:29Z</time>
      </trkpt>
      <trkpt lat="47.28294" lon="4.91892">
        <ele>610</ele>
        <time>2012-12-22T08:54:31Z</time>
      </trkpt>
      <trkpt lat="47.2829" lon="4.91886">
        <ele>611</ele>
        <time>2012-12-22T08:54:33Z</time>
      </trkpt>
      <trkpt lat="47.28284" lon="4.9188">
        <ele>610</ele>
        <time>2012-12-22T08:54:35Z</time>
      </trkpt>
      <trkpt lat="47.28279" lon="4.91874">
        <ele>608</ele>
        <time>2012-12-22T08:54:37Z</time>
      </trkpt>
      <trkpt lat="47.28275" lon="4.91868">
        <ele>606</ele>
        <time>2012-12-22T08:54:40Z</time>
      </trkpt>
      <trkpt lat="47.2827" lon="4.91862">
        <ele>605</ele>
        <time>2012-12-22T08:54:43Z</time>
      </trkpt>
      <trkpt lat="47.2826" lon="4.91856">
        <ele>602</ele>
        <time>2012-12-22T08:54:51Z</time>
      </trkpt>
      <trkpt lat="47.28256" lon="4.91851">
        <ele>601</ele>
        <time>2012-12-22T08:54:52Z</time>
      </trkpt>
      <trkpt lat="47.2825" lon="4.91844">
        <ele>600</ele>
        <time>2012-12-22T08:54:54Z</time>
      </trkpt>
      <trkpt lat="47.28244" lon="4.91839">
        <ele>601</ele>
        <time>2012-12-22T08:54:57Z</time>
      </trkpt>
      <trkpt lat="47.28239" lon="4.91836">
        <ele>598</ele>
        <time>2012-12-22T08:54:59Z</time>
      </trkpt>
      <trkpt lat="47.28234" lon="4.91831">
        <ele>597</ele>
        <time>2012-12-22T08:55:01Z</time>
      </trkpt>
      <trkpt lat="47.2823" lon="4.91828">
        <ele>596</ele>
        <time>2012-12-22T08:55:04Z</time>
      </trkpt>
      <trkpt lat="47.28224" lon="4.91825">
        <ele>594</ele>
        <time>2012-12-22T08:55:10Z</time>
      </trkpt>
      <trkpt lat="47.28214" lon="4.91818">
        <ele>594</ele>
        <time>2012-12-22T08:55:18Z</time>
      </trkpt>
      <trkpt lat="47.28204" lon="4.91806">
        <ele>591</ele>
        <time>2012-12-22T08:55:23Z</time>
      </trkpt>
      <trkpt lat="47.282" lon="4.918">
        <ele>590</ele>
        <time>2012-12-22T08:55:24Z</time>
      </trkpt>
      <trkpt lat="47.28195" lon="4.91798">
        <ele>588</ele>
        <time>2012-12-22T08:55:25Z</time>
      </trkpt>
      <trkpt lat="47.28189" lon="4.91792">
        <ele>587</ele>
        <time>2012-12-22T08:55:26Z</time>
      </trkpt>
      <trkpt lat="47.28185" lon="4.91787">
        <ele>585</ele>
        <time>2012-12-22T08:55:28Z</time>
      </trkpt>
      <trkpt lat="47.28179" lon="4.91782">
        <ele>584</ele>
        <time>2012-12-22T08:55:32Z</time>
      </trkpt>
      <trkpt lat="47.28178" lon="4.91775">
        <ele>581</ele>
        <time>2012-12-22T08:55:35Z</time>
      </trkpt>
      <trkpt lat="47.28179" lon="4.91768">
        <ele>579</ele>
        <time>2012-12-22T08:55:38Z</time>
      </trkpt>
      <trkpt lat="47.28184" lon="4.91766">
        <ele>578</ele>
        <time>2012-12-22T08:55:42Z</time>
      </trkpt>
      <trkpt lat="47.28188" lon="4.91763">
        <ele>579</ele>
        <time>2012-12-22T08:55:47Z</time>
      </trkpt>
      <trkpt lat="47.28193" lon="4.91762">
        <ele>578</ele>
        <time>2012-12-22T08:55:51Z</time>
      </trkpt>
      <trkpt lat="47.282" lon="4.9176">
        <ele>578</ele>
        <time>2012-12-22T08:55:53Z</time>
      </trkpt>
      <trkpt lat="47.28205" lon="4.91761">
        <ele>577</ele>
        <time>2012-12-22T08:55:54Z</time>
      </trkpt>
      <trkpt lat="47.28212" lon="4.91761">
        <ele>576</ele>
        <time>2012-12-22T08:55:57Z</time>
      </trkpt>
      <trkpt lat="47.28217" lon="4.9176">
        <ele>575</ele>
        <time>2012-12-22T08:56:00Z</time>
      </trkpt>
      <trkpt lat="47.28223" lon="4.91758">
        <ele>573</ele>
        <time>2012-12-22T08:56:03Z</time>
      </trkpt>
      <trkpt lat="47.28229" lon="4.91756">
        <ele>572</ele>
        <time>2012-12-22T08:56:06Z</time>
      </trkpt>
      <trkpt lat="47.28234" lon="4.91755">
        <ele>572</ele>
        <time>2012-12-22T08:56:08Z</time>
      </trkpt>
      <trkpt lat="47.2824" lon="4.91753">
        <ele>570</ele>
        <time>2012-12-22T08:56:10Z</time>
      </trkpt>
      <trkpt lat="47.28246" lon="4.91754">
        <ele>570</ele>
        <time>2012-12-22T08:56:12Z</time>
      </trkpt>
      <trkpt lat="47.28251" lon="4.91753">
        <ele>568</ele>
        <time>2012-12-22T08:56:14Z</time>
      </trkpt>
      <trkpt lat="47.28256" lon="4.91751">
        <ele>566</ele>
        <time>2012-12-22T08:56:17Z</time>
      </trkpt>
      <trkpt lat="47.28262" lon="4.91748">
        <ele>565</ele>
        <time>2012-12-22T08:56:20Z</time>
      </trkpt>
      <trkpt lat="47.28268" lon="4.91749">
        <ele>564</ele>
        <time>2012-12-22T08:56:23Z</time>
      </trkpt>
      <trkpt lat="47.28274" lon="4.91745">
        <ele>563</ele>
        <time>2012-12-22T08:56:26Z</time>
      </trkpt>
      <trkpt lat="47.28269" lon="4.91748">
        <ele>562</ele>
        <time>2012-12-22T08:56:29Z</time>
      </trkpt>
      <trkpt lat="47.28265" lon="4.9175">
        <ele>561</ele>
        <time>2012-12-22T08:56:32Z</time>
      </trkpt>
      <trkpt lat="47.28261" lon="4.91753">
        <ele>561</ele>
        <time>2012-12-22T08:56:35Z</time>
      </trkpt>
      <trkpt lat="47.28255" lon="4.91752">
        <ele>562</ele>
        <time>2012-12-22T08:56:38Z</time>
      </trkpt>
      <trkpt lat="47.2825" lon="4.91755">
        <ele>563</ele>
        <time>2012-12-22T08:56:42Z</time>
      </trkpt>
      <trkpt lat="47.28244" lon="4.91757">
        <ele>564</ele>
        <time>2012-12-22T08:56:45Z</time>
      </trkpt>
      <trkpt lat="47.2824" lon="4.91761">
        <ele>564</ele>
        <time>2012-12-22T08:56:48Z</time>
      </trkpt>
      <trkpt lat="47.28235" lon="4.91764">
        <ele>565</ele>
        <time>2012-12-22T08:56:52Z</time>
      </trkpt>
      <trkpt lat="47.28229" lon="4.91764">
        <ele>566</ele>
        <time>2012-12-22T08:56:57Z</time>
      </trkpt>
      <trkpt lat="47.28223" lon="4.91764">
        <ele>567</ele>
        <time>2012-12-22T08:57:00Z</time>
      </trkpt>
      <trkpt lat="47.28218" lon="4.91765">
        <ele>566</ele>
        <time>2012-12-22T08:57:03Z</time>
      </trkpt>
      <trkpt lat="47.28211" lon="4.91766">
        <ele>568</ele>
        <time>2012-12-22T08:57:06Z</time>
      </trkpt>
      <trkpt lat="47.28204" lon="4.91766">
        <ele>569</ele>
        <time>2012-12-22T08:57:09Z</time>
      </trkpt>
      <trkpt lat="47.28198" lon="4.91765">
        <ele>570</ele>
        <time>2012-12-22T08:57:11Z</time>
      </trkpt>
      <trkpt lat="47.28194" lon="4.91765">
        <ele>570</ele>
        <time>2012-12-22T08:57:13Z</time>
      </trkpt>
      <trkpt lat="47.28189" lon="4.91765">
        <ele>570</ele>
        <time>2012-12-22T08:57:16Z</time>
      </trkpt>
      <trkpt lat="47.28184" lon="4.91768">
        <ele>570</ele>
        <time>2012-12-22T08:57:20Z</time>
      </trkpt>
      <trkpt lat="47.28178" lon="4.9177">
        <ele>572</ele>
        <time>2012-12-22T08:57:24Z</time>
      </trkpt>
      <trkpt lat="47.28172" lon="4.91768">
        <ele>574</ele>
        <time>2012-12-22T08:57:28Z</time>
      </trkpt>
      <trkpt lat="47.28166" lon="4.91765">
        <ele>573</ele>
        <time>2012-12-22T08:57:33Z</time>
      </trkpt>
      <trkpt lat="47.28161" lon="4.91766">
        <ele>574</ele>
        <time>2012-12-22T08:57:37Z</time>
      </trkpt>
      <trkpt lat="47.28156" lon="4.91767">
        <ele>573</ele>
        <time>2012-12-22T08:57:41Z</time>
      </trkpt>
      <trkpt lat="47.2815" lon="4.91766">
        <ele>571</ele>
        <time>2012-12-22T08:57:48Z</time>
      </trkpt>
      <trkpt lat="47.28145" lon="4.91766">
        <ele>571</ele>
        <time>2012-12-22T08:57:54Z</time>
      </trkpt>
      <trkpt lat="47.2814" lon="4.91766">
        <ele>571</ele>
        <time>2012-12-22T08:57:58Z</time>
      </trkpt>
      <trkpt lat="47.28135" lon="4.91764">
        <ele>571</ele>
        <time>2012-12-22T08:58:01Z</time>
      </trkpt>
      <trkpt lat="47.2813" lon="4.91762">
        <ele>571</ele>
        <time>2012-12-22T08:58:04Z</time>
      </trkpt>
      <trkpt lat="47.28123" lon="4.91762">
        <ele>572</ele>
        <time>2012-12-22T08:58:11Z</time>
      </trkpt>
      <trkpt lat="47.28118" lon="4.91763">
        <ele>572</ele>
        <time>2012-12-22T08:58:14Z</time>
      </trkpt>
      <trkpt lat="47.28112" lon="4.91761">
        <ele>572</ele>
        <time>2012-12-22T08:58:17Z</time>
      </trkpt>
      <trkpt lat="47.28107" lon="4.91759">
        <ele>573</ele>
        <time>2012-12-22T08:58:20Z</time>
      </trkpt>
      <trkpt lat="47.28099" lon="4.91758">
        <ele>573</ele>
        <time>2012-12-22T08:58:23Z</time>
      </trkpt>
      <trkpt lat="47.28093" lon="4.91756">
        <ele>573</ele>
        <time>2012-12-22T08:58:25Z</time>
      </trkpt>
      <trkpt lat="47.28088" lon="4.91756">
        <ele>572</ele>
        <time>2012-12-22T08:58:28Z</time>
      </trkpt>
      <trkpt lat="47.28082" lon="4.91756">
        <ele>573</ele>
        <time>2012-12-22T08:58:31Z</time>
      </trkpt>
      <trkpt lat="47.28076" lon="4.91758">
        <ele>572</ele>
        <time>2012-12-22T08:58:34Z</time>
      </trkpt>
      <trkpt lat="47.28071" lon="4.91757">
        <ele>573</ele>
        <time>2012-12-22T08:58:37Z</time>
      </trkpt>
      <trkpt lat="47.28066" lon="4.91757">
        <ele>572</ele>
        <time>2012-12-22T08:58:41Z</time>
      </trkpt>
      <trkpt lat="47.2806" lon="4.91754">
        <ele>572</ele>
        <time>2012-12-22T08:58:44Z</time>
      </trkpt>
      <trkpt lat="47.28055" lon="4.91751">
        <ele>571</ele>
        <time>2012-12-22T08:58:47Z</time>
      </trkpt>
      <trkpt lat="47.28047" lon="4.91748">
        <ele>570</ele>
        <time>2012-12-22T08:58:50Z</time>
      </trkpt>
      <trkpt lat="47.28042" lon="4.91748">
        <ele>572</ele>
        <time>2012-12-22T08:58:53Z</time>
      </trkpt>
      <trkpt lat="47.28039" lon="4.91742">
        <ele>574</ele>
        <time>2012-12-22T08:58:59Z</time>
      </trkpt>
      <trkpt lat="47.28036" lon="4.91736">
        <ele>575</ele>
        <time>2012-12-22T08:59:02Z</time>
      </trkpt>
      <trkpt lat="47.28032" lon="4.91731">
        <ele>574</ele>
        <time>2012-12-22T08:59:04Z</time>
      </trkpt>
      <trkpt lat="47.2803" lon="4.91725">
        <ele>568</ele>
        <time>2012-12-22T08:59:16Z</time>
      </trkpt>
      <trkpt lat="47.28025" lon="4.91719">
        <ele>564</ele>
        <time>2012-12-22T08:59:18Z</time>
      </trkpt>
      <trkpt lat="47.28025" lon="4.91719">
        <ele>564</ele>
        <time>2012-12-22T08:59:18Z</time>
      </trkpt>
      <trkpt lat="47.28025" lon="4.91719">
        <ele>562</ele>
        <time>2012-12-22T08:59:25Z</time>
      </trkpt>
      <trkpt lat="47.28021" lon="4.91713">
        <ele>559</ele>
        <time>2012-12-22T08:59:35Z</time>
      </trkpt>
      <trkpt lat="47.28016" lon="4.91716">
        <ele>562</ele>
        <time>2012-12-22T08:59:40Z</time>
      </trkpt>
      <trkpt lat="47.2801" lon="4.9172">
        <ele>563</ele>
        <time>2012-12-22T08:59:45Z</time>
      </trkpt>
      <trkpt lat="47.28004" lon="4.91724">
        <ele>564</ele>
        <time>2012-12-22T08:59:50Z</time>
      </trkpt>
      <trkpt lat="47.28001" lon="4.91728">
        <ele>565</ele>
        <time>2012-12-22T08:59:54Z</time>
      </trkpt>
      <trkpt lat="47.27995" lon="4.91732">
        <ele>565</ele>
        <time>2012-12-22T08:59:58Z</time>
      </trkpt>
      <trkpt lat="47.27991" lon="4.91736">
        <ele>565</ele>
        <time>2012-12-22T09:00:01Z</time>
      </trkpt>
      <trkpt lat="47.27986" lon="4.9174">
        <ele>565</ele>
        <time>2012-12-22T09:00:04Z</time>
      </trkpt>
      <trkpt lat="47.27983" lon="4.91748">
        <ele>565</ele>
        <time>2012-12-22T09:00:07Z</time>
      </trkpt>
      <trkpt lat="47.2798" lon="4.91753">
        <ele>566</ele>
        <time>2012-12-22T09:00:10Z</time>
      </trkpt>
      <trkpt lat="47.27976" lon="4.9176">
        <ele>567</ele>
        <time>2012-12-22T09:00:14Z</time>
      </trkpt>
      <trkpt lat="47.27973" lon="4.91767">
        <ele>567</ele>
        <time>2012-12-22T09:00:17Z</time>
      </trkpt>
      <trkpt lat="47.27968" lon="4.91773">
        <ele>572</ele>
        <time>2012-12-22T09:00:23Z</time>
      </trkpt>
      <trkpt lat="47.27965" lon="4.9178">
        <ele>572</ele>
        <time>2012-12-22T09:00:27Z</time>
      </trkpt>
      <trkpt lat="47.27961" lon="4.91786">
        <ele>572</ele>
        <time>2012-12-22T09:00:30Z</time>
      </trkpt>
      <trkpt lat="47.27958" lon="4.91793">
        <ele>572</ele>
        <time>2012-12-22T09:00:33Z</time>
      </trkpt>
      <trkpt lat="47.27956" lon="4.91798">
        <ele>572</ele>
        <time>2012-12-22T09:00:35Z</time>
      </trkpt>
      <trkpt lat="47.27952" lon="4.91807">
        <ele>572</ele>
        <time>2012-12-22T09:00:38Z</time>
      </trkpt>
      <trkpt lat="47.27949" lon="4.91811">
        <ele>572</ele>
        <time>2012-12-22T09:00:40Z</time>
      </trkpt>
      <trkpt lat="47.27946" lon="4.91817">
        <ele>572</ele>
        <time>2012-12-22T09:00:43Z</time>
      </trkpt>
      <trkpt lat="47.27945" lon="4.91825">
        <ele>572</ele>
        <time>2012-12-22T09:00:46Z</time>
      </trkpt>
      <trkpt lat="47.2794" lon="4.91836">
        <ele>572</ele>
        <time>2012-12-22T09:00:50Z</time>
      </trkpt>
      <trkpt lat="47.27938" lon="4.91844">
        <ele>572</ele>
        <time>2012-12-22T09:00:54Z</time>
      </trkpt>
      <trkpt lat="47.27936" lon="4.91853">
        <ele>574</ele>
        <time>2012-12-22T09:00:57Z</time>
      </trkpt>
      <trkpt lat="47.27934" lon="4.9186">
        <ele>577</ele>
        <time>2012-12-22T09:01:00Z</time>
      </trkpt>
      <trkpt lat="47.27932" lon="4.91868">
        <ele>577</ele>
        <time>2012-12-22T09:01:03Z</time>
      </trkpt>
      <trkpt lat="47.27933" lon="4.9188">
        <ele>573</ele>
        <time>2012-12-22T09:01:05Z</time>
      </trkpt>
      <trkpt lat="47.27932" lon="4.91886">
        <ele>574</ele>
        <time>2012-12-22T09:01:08Z</time>
      </trkpt>
      <trkpt lat="47.27931" lon="4.91894">
        <ele>574</ele>
        <time>2012-12-22T09:01:11Z</time>
      </trkpt>
      <trkpt lat="47.2793" lon="4.91901">
        <ele>574</ele>
        <time>2012-12-22T09:01:14Z</time>
      </trkpt>
      <trkpt lat="47.2793" lon="4.9191">
        <ele>573</ele>
        <time>2012-12-22T09:01:18Z</time>
      </trkpt>
      <trkpt lat="47.27932" lon="4.91918">
        <ele>573</ele>
        <time>2012-12-22T09:01:21Z</time>
      </trkpt>
      <trkpt lat="47.27934" lon="4.91926">
        <ele>575</ele>
        <time>2012-12-22T09:01:24Z</time>
      </trkpt>
      <trkpt lat="47.27935" lon="4.91933">
        <ele>577</ele>
        <time>2012-12-22T09:01:27Z</time>
      </trkpt>
      <trkpt lat="47.27936" lon="4.91941">
        <ele>578</ele>
        <time>2012-12-22T09:01:30Z</time>
      </trkpt>
      <trkpt lat="47.27938" lon="4.91949">
        <ele>579</ele>
        <time>2012-12-22T09:01:33Z</time>
      </trkpt>
      <trkpt lat="47.2794" lon="4.91955">
        <ele>580</ele>
        <time>2012-12-22T09:01:36Z</time>
      </trkpt>
      <trkpt lat="47.27942" lon="4.91963">
        <ele>579</ele>
        <time>2012-12-22T09:01:39Z</time>
      </trkpt>
      <trkpt lat="47.27945" lon="4.91971">
        <ele>579</ele>
        <time>2012-12-22T09:01:42Z</time>
      </trkpt>
      <trkpt lat="47.27946" lon="4.91978">
        <ele>579</ele>
        <time>2012-12-22T09:01:45Z</time>
      </trkpt>
      <trkpt lat="47.27948" lon="4.91986">
        <ele>581</ele>
        <time>2012-12-22T09:01:48Z</time>
      </trkpt>
      <trkpt lat="47.2795" lon="4.91993">
        <ele>582</ele>
        <time>2012-12-22T09:01:51Z</time>
      </trkpt>
      <trkpt lat="47.27952" lon="4.92">
        <ele>584</ele>
        <time>2012-12-22T09:01:54Z</time>
      </trkpt>
      <trkpt lat="47.27954" lon="4.92007">
        <ele>583</ele>
        <time>2012-12-22T09:01:57Z</time>
      </trkpt>
      <trkpt lat="47.27956" lon="4.92014">
        <ele>583</ele>
        <time>2012-12-22T09:01:59Z</time>
      </trkpt>
      <trkpt lat="47.27958" lon="4.92023">
        <ele>583</ele>
        <time>2012-12-22T09:02:02Z</time>
      </trkpt>
      <trkpt lat="47.27961" lon="4.92028">
        <ele>583</ele>
        <time>2012-12-22T09:02:04Z</time>
      </trkpt>
      <trkpt lat="47.27964" lon="4.92035">
        <ele>582</ele>
        <time>2012-12-22T09:02:07Z</time>
      </trkpt>
      <trkpt lat="47.27967" lon="4.92043">
        <ele>581</ele>
        <time>2012-12-22T09:02:10Z</time>
      </trkpt>
      <trkpt lat="47.2797" lon="4.92051">
        <ele>580</ele>
        <time>2012-12-22T09:02:13Z</time>
      </trkpt>
      <trkpt lat="47.27973" lon="4.92058">
        <ele>580</ele>
        <time>2012-12-22T09:02:16Z</time>
      </trkpt>
      <trkpt lat="47.27976" lon="4.92063">
        <ele>580</ele>
        <time>2012-12-22T09:02:19Z</time>
      </trkpt>
      <trkpt lat="47.2798" lon="4.92067">
        <ele>579</ele>
        <time>2012-12-22T09:02:21Z</time>
      </trkpt>
      <trkpt lat="47.27985" lon="4.92072">
        <ele>580</ele>
        <time>2012-12-22T09:02:24Z</time>
      </trkpt>
      <trkpt lat="47.2799" lon="4.92079">
        <ele>579</ele>
        <time>2012-12-22T09:02:27Z</time>
      </trkpt>
      <trkpt lat="47.27993" lon="4.92084">
        <ele>579</ele>
        <time>2012-12-22T09:02:29Z</time>
      </trkpt>
      <trkpt lat="47.27997" lon="4.92088">
        <ele>580</ele>
        <time>2012-12-22T09:02:32Z</time>
      </trkpt>
      <trkpt lat="47.28001" lon="4.92092">
        <ele>580</ele>
        <time>2012-12-22T09:02:34Z</time>
      </trkpt>
      <trkpt lat="47.28005" lon="4.92097">
        <ele>580</ele>
        <time>2012-12-22T09:02:37Z</time>
      </trkpt>
      <trkpt lat="47.2801" lon="4.92102">
        <ele>581</ele>
        <time>2012-12-22T09:02:40Z</time>
      </trkpt>
      <trkpt lat="47.28015" lon="4.92105">
        <ele>581</ele>
        <time>2012-12-22T09:02:43Z</time>
      </trkpt>
      <trkpt lat="47.28018" lon="4.9211">
        <ele>583</ele>
        <time>2012-12-22T09:02:46Z</time>
      </trkpt>
      <trkpt lat="47.28024" lon="4.92116">
        <ele>583</ele>
        <time>2012-12-22T09:02:50Z</time>
      </trkpt>
      <trkpt lat="47.28029" lon="4.92121">
        <ele>585</ele>
        <time>2012-12-22T09:02:53Z</time>
      </trkpt>
      <trkpt lat="47.28033" lon="4.92124">
        <ele>585</ele>
        <time>2012-12-22T09:02:56Z</time>
      </trkpt>
      <trkpt lat="47.28037" lon="4.92127">
        <ele>585</ele>
        <time>2012-12-22T09:02:58Z</time>
      </trkpt>
      <trkpt lat="47.28042" lon="4.92133">
        <ele>585</ele>
        <time>2012-12-22T09:03:01Z</time>
      </trkpt>
      <trkpt lat="47.28047" lon="4.92141">
        <ele>583</ele>
        <time>2012-12-22T09:03:05Z</time>
      </trkpt>
      <trkpt lat="47.28051" lon="4.92146">
        <ele>581</ele>
        <time>2012-12-22T09:03:07Z</time>
      </trkpt>
      <trkpt lat="47.28056" lon="4.9215">
        <ele>581</ele>
        <time>2012-12-22T09:03:10Z</time>
      </trkpt>
      <trkpt lat="47.2806" lon="4.92153">
        <ele>584</ele>
        <time>2012-12-22T09:03:14Z</time>
      </trkpt>
      <trkpt lat="47.28065" lon="4.92155">
        <ele>586</ele>
        <time>2012-12-22T09:03:17Z</time>
      </trkpt>
      <trkpt lat="47.28069" lon="4.92162">
        <ele>588</ele>
        <time>2012-12-22T09:03:20Z</time>
      </trkpt>
      <trkpt lat="47.28072" lon="4.92167">
        <ele>589</ele>
        <time>2012-12-22T09:03:23Z</time>
      </trkpt>
      <trkpt lat="47.28077" lon="4.92172">
        <ele>590</ele>
        <time>2012-12-22T09:03:26Z</time>
      </trkpt>
      <trkpt lat="47.2808" lon="4.92179">
        <ele>593</ele>
        <time>2012-12-22T09:03:30Z</time>
      </trkpt>
      <trkpt lat="47.28085" lon="4.92185">
        <ele>594</ele>
        <time>2012-12-22T09:03:33Z</time>
      </trkpt>
      <trkpt lat="47.28089" lon="4.92191">
        <ele>595</ele>
        <time>2012-12-22T09:03:37Z</time>
      </trkpt>
      <trkpt lat="47.28092" lon="4.92203">
        <ele>595</ele>
        <time>2012-12-22T09:03:40Z</time>
      </trkpt>
      <trkpt lat="47.28097" lon="4.92207">
        <ele>597</ele>
        <time>2012-12-22T09:03:44Z</time>
      </trkpt>
      <trkpt lat="47.28101" lon="4.92211">
        <ele>600</ele>
        <time>2012-12-22T09:03:48Z</time>
      </trkpt>
      <trkpt lat="47.28106" lon="4.92214">
        <ele>600</ele>
        <time>2012-12-22T09:03:51Z</time>
      </trkpt>
      <trkpt lat="47.28112" lon="4.92221">
        <ele>598</ele>
        <time>2012-12-22T09:03:54Z</time>
      </trkpt>
      <trkpt lat="47.28114" lon="4.92227">
        <ele>601</ele>
        <time>2012-12-22T09:03:58Z</time>
      </trkpt>
      <trkpt lat="47.2812" lon="4.92229">
        <ele>603</ele>
        <time>2012-12-22T09:04:02Z</time>
      </trkpt>
      <trkpt lat="47.28126" lon="4.92232">
        <ele>603</ele>
        <time>2012-12-22T09:04:06Z</time>
      </trkpt>
      <trkpt lat="47.2813" lon="4.92237">
        <ele>603</ele>
        <time>2012-12-22T09:04:08Z</time>
      </trkpt>
      <trkpt lat="47.28135" lon="4.92242">
        <ele>603</ele>
        <time>2012-12-22T09:04:11Z</time>
      </trkpt>
      <trkpt lat="47.28141" lon="4.92244">
        <ele>603</ele>
        <time>2012-12-22T09:04:14Z</time>
      </trkpt>
      <trkpt lat="47.28145" lon="4.92247">
        <ele>603</ele>
        <time>2012-12-22T09:04:16Z</time>
      </trkpt>
      <trkpt lat="47.28147" lon="4.92253">
        <ele>605</ele>
        <time>2012-12-22T09:04:19Z</time>
      </trkpt>
      <trkpt lat="47.28151" lon="4.92257">
        <ele>606</ele>
        <time>2012-12-22T09:04:23Z</time>
      </trkpt>
      <trkpt lat="47.28156" lon="4.92259">
        <ele>606</ele>
        <time>2012-12-22T09:04:26Z</time>
      </trkpt>
      <trkpt lat="47.28159" lon="4.92263">
        <ele>605</ele>
        <time>2012-12-22T09:04:28Z</time>
      </trkpt>
      <trkpt lat="47.28163" lon="4.92268">
        <ele>605</ele>
        <time>2012-12-22T09:04:30Z</time>
      </trkpt>
      <trkpt lat="47.28168" lon="4.92274">
        <ele>606</ele>
        <time>2012-12-22T09:04:38Z</time>
      </trkpt>
      <trkpt lat="47.28173" lon="4.92278">
        <ele>607</ele>
        <time>2012-12-22T09:04:40Z</time>
      </trkpt>
      <trkpt lat="47.28177" lon="4.92281">
        <ele>608</ele>
        <time>2012-12-22T09:04:42Z</time>
      </trkpt>
      <trkpt lat="47.28181" lon="4.92287">
        <ele>612</ele>
        <time>2012-12-22T09:04:45Z</time>
      </trkpt>
      <trkpt lat="47.28187" lon="4.92292">
        <ele>613</ele>
        <time>2012-12-22T09:04:51Z</time>
      </trkpt>
      <trkpt lat="47.28189" lon="4.92298">
        <ele>615</ele>
        <time>2012-12-22T09:04:53Z</time>
      </trkpt>
      <trkpt lat="47.28193" lon="4.92302">
        <ele>615</ele>
        <time>2012-12-22T09:04:55Z</time>
      </trkpt>
      <trkpt lat="47.28193" lon="4.92302">
        <ele>615</ele>
        <time>2012-12-22T09:04:55Z</time>
      </trkpt>
      <trkpt lat="47.28193" lon="4.92302">
        <ele>615</ele>
        <time>2012-12-22T09:04:56Z</time>
      </trkpt>
      <trkpt lat="47.28196" lon="4.92309">
        <ele>617</ele>
        <time>2012-12-22T09:04:59Z</time>
      </trkpt>
      <trkpt lat="47.28201" lon="4.92313">
        <ele>620</ele>
        <time>2012-12-22T09:05:03Z</time>
      </trkpt>
      <trkpt lat="47.28205" lon="4.92318">
        <ele>622</ele>
        <time>2012-12-22T09:05:06Z</time>
      </trkpt>
      <trkpt lat="47.28209" lon="4.92326">
        <ele>621</ele>
        <time>2012-12-22T09:05:09Z</time>
      </trkpt>
      <trkpt lat="47.28213" lon="4.92333">
        <ele>622</ele>
        <time>2012-12-22T09:05:11Z</time>
      </trkpt>
      <trkpt lat="47.28219" lon="4.92336">
        <ele>623</ele>
        <time>2012-12-22T09:05:15Z</time>
      </trkpt>
      <trkpt lat="47.28224" lon="4.92342">
        <ele>622</ele>
        <time>2012-12-22T09:05:18Z</time>
      </trkpt>
      <trkpt lat="47.28228" lon="4.9235">
        <ele>621</ele>
        <time>2012-12-22T09:05:21Z</time>
      </trkpt>
      <trkpt lat="47.2823" lon="4.92356">
        <ele>622</ele>
        <time>2012-12-22T09:05:23Z</time>
      </trkpt>
      <trkpt lat="47.28234" lon="4.92362">
        <ele>622</ele>
        <time>2012-12-22T09:05:27Z</time>
      </trkpt>
      <trkpt lat="47.28239" lon="4.92366">
        <ele>622</ele>
        <time>2012-12-22T09:05:31Z</time>
      </trkpt>
      <trkpt lat="47.28242" lon="4.92375">
        <ele>621</ele>
        <time>2012-12-22T09:05:33Z</time>
      </trkpt>
      <trkpt lat="47.28245" lon="4.9238">
        <ele>621</ele>
        <time>2012-12-22T09:05:36Z</time>
      </trkpt>
      <trkpt lat="47.2825" lon="4.92382">
        <ele>621</ele>
        <time>2012-12-22T09:05:39Z</time>
      </trkpt>
      <trkpt lat="47.28255" lon="4.92385">
        <ele>620</ele>
        <time>2012-12-22T09:05:42Z</time>
      </trkpt>
      <trkpt lat="47.28259" lon="4.92392">
        <ele>620</ele>
        <time>2012-12-22T09:05:45Z</time>
      </trkpt>
      <trkpt lat="47.28263" lon="4.92398">
        <ele>619</ele>
        <time>2012-12-22T09:05:48Z</time>
      </trkpt>
      <trkpt lat="47.28267" lon="4.92402">
        <ele>619</ele>
        <time>2012-12-22T09:05:51Z</time>
      </trkpt>
      <trkpt lat="47.28272" lon="4.92407">
        <ele>621</ele>
        <time>2012-12-22T09:05:53Z</time>
      </trkpt>
      <trkpt lat="47.28275" lon="4.92414">
        <ele>622</ele>
        <time>2012-12-22T09:05:55Z</time>
      </trkpt>
      <trkpt lat="47.28277" lon="4.9242">
        <ele>622</ele>
        <time>2012-12-22T09:05:57Z</time>
      </trkpt>
      <trkpt lat="47.28282" lon="4.92425">
        <ele>620</ele>
        <time>2012-12-22T09:06:00Z</time>
      </trkpt>
      <trkpt lat="47.28287" lon="4.92429">
        <ele>620</ele>
        <time>2012-12-22T09:06:03Z</time>
      </trkpt>
      <trkpt lat="47.28291" lon="4.92434">
        <ele>619</ele>
        <time>2012-12-22T09:06:06Z</time>
      </trkpt>
      <trkpt lat="47.28295" lon="4.92438">
        <ele>621</ele>
        <time>2012-12-22T09:06:09Z</time>
      </trkpt>
      <trkpt lat="47.28299" lon="4.92442">
        <ele>621</ele>
        <time>2012-12-22T09:06:13Z</time>
      </trkpt>
      <trkpt lat="47.28304" lon="4.92446">
        <ele>621</ele>
        <time>2012-12-22T09:06:17Z</time>
      </trkpt>
      <trkpt lat="47.28307" lon="4.9245">
        <ele>622</ele>
        <time>2012-12-22T09:06:19Z</time>
      </trkpt>
      <trkpt lat="47.28307" lon="4.9245">
        <ele>622</ele>
        <time>2012-12-22T09:06:19Z</time>
      </trkpt>
      <trkpt lat="47.28307" lon="4.9245">
        <ele>623</ele>
        <time>2012-12-22T09:06:21Z</time>
      </trkpt>
      <trkpt lat="47.28313" lon="4.92453">
        <ele>625</ele>
        <time>2012-12-22T09:06:24Z</time>
      </trkpt>
      <trkpt lat="47.28317" lon="4.92457">
        <ele>624</ele>
        <time>2012-12-22T09:06:26Z</time>
      </trkpt>
      <trkpt lat="47.2832" lon="4.92464">
        <ele>626</ele>
        <time>2012-12-22T09:06:29Z</time>
      </trkpt>
      <trkpt lat="47.28325" lon="4.92469">
        <ele>628</ele>
        <time>2012-12-22T09:06:32Z</time>
      </trkpt>
      <trkpt lat="47.28328" lon="4.92474">
        <ele>627</ele>
        <time>2012-12-22T09:06:34Z</time>
      </trkpt>
      <trkpt lat="47.28332" lon="4.92481">
        <ele>627</ele>
        <time>2012-12-22T09:06:37Z</time>
      </trkpt>
      <trkpt lat="47.28336" lon="4.92486">
        <ele>629</ele>
        <time>2012-12-22T09:06:40Z</time>
      </trkpt>
      <trkpt lat="47.28342" lon="4.9249">
        <ele>629</ele>
        <time>2012-12-22T09:06:43Z</time>
      </trkpt>
      <trkpt lat="47.28346" lon="4.92499">
        <ele>630</ele>
        <time>2012-12-22T09:06:46Z</time>
      </trkpt>
      <trkpt lat="47.28346" lon="4.92499">
        <ele>630</ele>
        <time>2012-12-22T09:06:46Z</time>
      </trkpt>
      <trkpt lat="47.28346" lon="4.92499">
        <ele>630</ele>
        <time>2012-12-22T09:06:47Z</time>
      </trkpt>
      <trkpt lat="47.28351" lon="4.92505">
        <ele>630</ele>
        <time>2012-12-22T09:06:50Z</time>
      </trkpt>
      <trkpt lat="47.28355" lon="4.9251">
        <ele>629</ele>
        <time>2012-12-22T09:06:52Z</time>
      </trkpt>
      <trkpt lat="47.28358" lon="4.92515">
        <ele>630</ele>
        <time>2012-12-22T09:06:55Z</time>
      </trkpt>
      <trkpt lat="47.28362" lon="4.92518">
        <ele>630</ele>
        <time>2012-12-22T09:07:01Z</time>
      </trkpt>
      <trkpt lat="47.28366" lon="4.92522">
        <ele>630</ele>
        <time>2012-12-22T09:07:03Z</time>
      </trkpt>
      <trkpt lat="47.28371" lon="4.92526">
        <ele>629</ele>
        <time>2012-12-22T09:07:06Z</time>
      </trkpt>
      <trkpt lat="47.28376" lon="4.9253">
        <ele>629</ele>
        <time>2012-12-22T09:07:09Z</time>
      </trkpt>
      <trkpt lat="47.28381" lon="4.92533">
        <ele>630</ele>
        <time>2012-12-22T09:07:12Z</time>
      </trkpt>
      <trkpt lat="47.28384" lon="4.92539">
        <ele>630</ele>
        <time>2012-12-22T09:07:15Z</time>
      </trkpt>
      <trkpt lat="47.28388" lon="4.92544">
        <ele>629</ele>
        <time>2012-12-22T09:07:17Z</time>
      </trkpt>
      <trkpt lat="47.28393" lon="4.92547">
        <ele>629</ele>
        <time>2012-12-22T09:07:23Z</time>
      </trkpt>
      <trkpt lat="47.28396" lon="4.92552">
        <ele>630</ele>
        <time>2012-12-22T09:07:25Z</time>
      </trkpt>
      <trkpt lat="47.28401" lon="4.92558">
        <ele>629</ele>
        <time>2012-12-22T09:07:28Z</time>
      </trkpt>
      <trkpt lat="47.28406" lon="4.92561">
        <ele>630</ele>
        <time>2012-12-22T09:07:30Z</time>
      </trkpt>
      <trkpt lat="47.28409" lon="4.92565">
        <ele>632</ele>
        <time>2012-12-22T09:07:33Z</time>
      </trkpt>
      <trkpt lat="47.28413" lon="4.92569">
        <ele>632</ele>
        <time>2012-12-22T09:07:39Z</time>
      </trkpt>
      <trkpt lat="47.28416" lon="4.92575">
        <ele>632</ele>
        <time>2012-12-22T09:07:43Z</time>
      </trkpt>
      <trkpt lat="47.28416" lon="4.92582">
        <ele>633</ele>
        <time>2012-12-22T09:07:50Z</time>
      </trkpt>
      <trkpt lat="47.28416" lon="4.92582">
        <ele>633</ele>
        <time>2012-12-22T09:07:50Z</time>
      </trkpt>
      <trkpt lat="47.28416" lon="4.92582">
        <ele>633</ele>
        <time>2012-12-22T09:07:51Z</time>
      </trkpt>
      <trkpt lat="47.28418" lon="4.92588">
        <ele>632</ele>
        <time>2012-12-22T09:07:58Z</time>
      </trkpt>
      <trkpt lat="47.28418" lon="4.92588">
        <ele>632</ele>
        <time>2012-12-22T09:07:58Z</time>
      </trkpt>
      <trkpt lat="47.28418" lon="4.92588">
        <ele>632</ele>
        <time>2012-12-22T09:08:23Z</time>
      </trkpt>
      <trkpt lat="47.28423" lon="4.92586">
        <ele>635</ele>
        <time>2012-12-22T09:08:43Z</time>
      </trkpt>
      <trkpt lat="47.28428" lon="4.9259">
        <ele>632</ele>
        <time>2012-12-22T09:08:50Z</time>
      </trkpt>
      <trkpt lat="47.28433" lon="4.92593">
        <ele>640</ele>
        <time>2012-12-22T09:09:02Z</time>
      </trkpt>
      <trkpt lat="47.28438" lon="4.92599">
        <ele>642</ele>
        <time>2012-12-22T09:09:05Z</time>
      </trkpt>
      <trkpt lat="47.28443" lon="4.92606">
        <ele>642</ele>
        <time>2012-12-22T09:09:11Z</time>
      </trkpt>
      <trkpt lat="47.28448" lon="4.92608">
        <ele>644</ele>
        <time>2012-12-22T09:09:13Z</time>
      </trkpt>
      <trkpt lat="47.28451" lon="4.92614">
        <ele>644</ele>
        <time>2012-12-22T09:09:15Z</time>
      </trkpt>
      <trkpt lat="47.28456" lon="4.92619">
        <ele>644</ele>
        <time>2012-12-22T09:09:20Z</time>
      </trkpt>
      <trkpt lat="47.28459" lon="4.92625">
        <ele>641</ele>
        <time>2012-12-22T09:09:26Z</time>
      </trkpt>
      <trkpt lat="47.28469" lon="4.92631">
        <ele>639</ele>
        <time>2012-12-22T09:09:29Z</time>
      </trkpt>
      <trkpt lat="47.28474" lon="4.92635">
        <ele>637</ele>
        <time>2012-12-22T09:09:30Z</time>
      </trkpt>
      <trkpt lat="47.28481" lon="4.92638">
        <ele>638</ele>
        <time>2012-12-22T09:09:32Z</time>
      </trkpt>
      <trkpt lat="47.28484" lon="4.92632">
        <ele>639</ele>
        <time>2012-12-22T09:09:38Z</time>
      </trkpt>
      <trkpt lat="47.28482" lon="4.92624">
        <ele>643</ele>
        <time>2012-12-22T09:09:41Z</time>
      </trkpt>
      <trkpt lat="47.28479" lon="4.92616">
        <ele>646</ele>
        <time>2012-12-22T09:09:48Z</time>
      </trkpt>
      <trkpt lat="47.28475" lon="4.92609">
        <ele>646</ele>
        <time>2012-12-22T09:09:51Z</time>
      </trkpt>
      <trkpt lat="47.28471" lon="4.92605">
        <ele>647</ele>
        <time>2012-12-22T09:09:55Z</time>
      </trkpt>
      <trkpt lat="47.28468" lon="4.926">
        <ele>648</ele>
        <time>2012-12-22T09:09:57Z</time>
      </trkpt>
      <trkpt lat="47.28465" lon="4.92595">
        <ele>648</ele>
        <time>2012-12-22T09:09:59Z</time>
      </trkpt>
      <trkpt lat="47.2846" lon="4.92591">
        <ele>649</ele>
        <time>2012-12-22T09:10:01Z</time>
      </trkpt>
      <trkpt lat="47.28456" lon="4.92584">
        <ele>647</ele>
        <time>2012-12-22T09:10:05Z</time>
      </trkpt>
      <trkpt lat="47.28452" lon="4.92577">
        <ele>644</ele>
        <time>2012-12-22T09:10:08Z</time>
      </trkpt>
      <trkpt lat="47.2844" lon="4.92572">
        <ele>640</ele>
        <time>2012-12-22T09:10:11Z</time>
      </trkpt>
      <trkpt lat="47.28435" lon="4.92572">
        <ele>639</ele>
        <time>2012-12-22T09:10:13Z</time>
      </trkpt>
      <trkpt lat="47.28433" lon="4.92578">
        <ele>633</ele>
        <time>2012-12-22T09:10:21Z</time>
      </trkpt>
      <trkpt lat="47.28433" lon="4.92578">
        <ele>633</ele>
        <time>2012-12-22T09:10:21Z</time>
      </trkpt>
      <trkpt lat="47.28433" lon="4.92578">
        <ele>634</ele>
        <time>2012-12-22T09:10:22Z</time>
      </trkpt>
      <trkpt lat="47.28435" lon="4.92587">
        <ele>635</ele>
        <time>2012-12-22T09:10:37Z</time>
      </trkpt>
      <trkpt lat="47.28438" lon="4.92593">
        <ele>635</ele>
        <time>2012-12-22T09:10:39Z</time>
      </trkpt>
      <trkpt lat="47.28443" lon="4.92597">
        <ele>636</ele>
        <time>2012-12-22T09:10:42Z</time>
      </trkpt>
      <trkpt lat="47.28445" lon="4.92605">
        <ele>637</ele>
        <time>2012-12-22T09:10:47Z</time>
      </trkpt>
      <trkpt lat="47.28448" lon="4.9261">
        <ele>638</ele>
        <time>2012-12-22T09:10:51Z</time>
      </trkpt>
      <trkpt lat="47.28455" lon="4.92612">
        <ele>638</ele>
        <time>2012-12-22T09:10:54Z</time>
      </trkpt>
      <trkpt lat="47.2846" lon="4.92616">
        <ele>637</ele>
        <time>2012-12-22T09:10:57Z</time>
      </trkpt>
      <trkpt lat="47.28464" lon="4.92619">
        <ele>637</ele>
        <time>2012-12-22T09:11:00Z</time>
      </trkpt>
      <trkpt lat="47.28467" lon="4.92625">
        <ele>636</ele>
        <time>2012-12-22T09:11:02Z</time>
      </trkpt>
      <trkpt lat="47.28469" lon="4.92632">
        <ele>638</ele>
        <time>2012-12-22T09:11:07Z</time>
      </trkpt>
      <trkpt lat="47.28466" lon="4.92639">
        <ele>640</ele>
        <time>2012-12-22T09:11:10Z</time>
      </trkpt>
      <trkpt lat="47.28466" lon="4.92647">
        <ele>638</ele>
        <time>2012-12-22T09:11:14Z</time>
      </trkpt>
      <trkpt lat="47.28464" lon="4.92653">
        <ele>638</ele>
        <time>2012-12-22T09:11:16Z</time>
      </trkpt>
      <trkpt lat="47.28461" lon="4.92659">
        <ele>638</ele>
        <time>2012-12-22T09:11:19Z</time>
      </trkpt>
      <trkpt lat="47.28462" lon="4.92666">
        <ele>640</ele>
        <time>2012-12-22T09:11:25Z</time>
      </trkpt>
      <trkpt lat="47.28465" lon="4.92672">
        <ele>637</ele>
        <time>2012-12-22T09:11:28Z</time>
      </trkpt>
      <trkpt lat="47.28469" lon="4.92676">
        <ele>629</ele>
        <time>2012-12-22T09:11:35Z</time>
      </trkpt>
      <trkpt lat="47.28469" lon="4.92676">
        <ele>629</ele>
        <time>2012-12-22T09:11:35Z</time>
      </trkpt>
      <trkpt lat="47.28469" lon="4.92676">
        <ele>630</ele>
        <time>2012-12-22T09:11:36Z</time>
      </trkpt>
      <trkpt lat="47.28473" lon="4.92679">
        <ele>630</ele>
        <time>2012-12-22T09:13:47Z</time>
      </trkpt>
      <trkpt lat="47.28468" lon="4.92683">
        <ele>631</ele>
        <time>2012-12-22T09:13:50Z</time>
      </trkpt>
      <trkpt lat="47.28468" lon="4.92691">
        <ele>632</ele>
        <time>2012-12-22T09:13:54Z</time>
      </trkpt>
      <trkpt lat="47.28473" lon="4.92696">
        <ele>633</ele>
        <time>2012-12-22T09:13:57Z</time>
      </trkpt>
      <trkpt lat="47.28477" lon="4.92699">
        <ele>633</ele>
        <time>2012-12-22T09:13:59Z</time>
      </trkpt>
      <trkpt lat="47.28481" lon="4.92704">
        <ele>635</ele>
        <time>2012-12-22T09:14:02Z</time>
      </trkpt>
      <trkpt lat="47.28486" lon="4.92708">
        <ele>635</ele>
        <time>2012-12-22T09:14:05Z</time>
      </trkpt>
      <trkpt lat="47.2849" lon="4.92714">
        <ele>634</ele>
        <time>2012-12-22T09:14:09Z</time>
      </trkpt>
      <trkpt lat="47.28492" lon="4.92721">
        <ele>636</ele>
        <time>2012-12-22T09:14:13Z</time>
      </trkpt>
      <trkpt lat="47.28496" lon="4.92726">
        <ele>634</ele>
        <time>2012-12-22T09:14:15Z</time>
      </trkpt>
      <trkpt lat="47.285" lon="4.9273">
        <ele>634</ele>
        <time>2012-12-22T09:14:18Z</time>
      </trkpt>
      <trkpt lat="47.28504" lon="4.92734">
        <ele>635</ele>
        <time>2012-12-22T09:14:22Z</time>
      </trkpt>
      <trkpt lat="47.28507" lon="4.92738">
        <ele>636</ele>
        <time>2012-12-22T09:14:24Z</time>
      </trkpt>
      <trkpt lat="47.28511" lon="4.92743">
        <ele>636</ele>
        <time>2012-12-22T09:14:27Z</time>
      </trkpt>
      <trkpt lat="47.28515" lon="4.92749">
        <ele>636</ele>
        <time>2012-12-22T09:14:31Z</time>
      </trkpt>
      <trkpt lat="47.28515" lon="4.92749">
        <ele>636</ele>
        <time>2012-12-22T09:14:31Z</time>
      </trkpt>
      <trkpt lat="47.28515" lon="4.92749">
        <ele>636</ele>
        <time>2012-12-22T09:14:32Z</time>
      </trkpt>
      <trkpt lat="47.28521" lon="4.92751">
        <ele>636</ele>
        <time>2012-12-22T09:14:34Z</time>
      </trkpt>
      <trkpt lat="47.28526" lon="4.92752">
        <ele>636</ele>
        <time>2012-12-22T09:14:36Z</time>
      </trkpt>
      <trkpt lat="47.28531" lon="4.92754">
        <ele>638</ele>
        <time>2012-12-22T09:14:45Z</time>
      </trkpt>
      <trkpt lat="47.28531" lon="4.92766">
        <ele>638</ele>
        <time>2012-12-22T09:14:51Z</time>
      </trkpt>
      <trkpt lat="47.28531" lon="4.92773">
        <ele>638</ele>
        <time>2012-12-22T09:14:55Z</time>
      </trkpt>
      <trkpt lat="47.28531" lon="4.9278">
        <ele>639</ele>
        <time>2012-12-22T09:14:58Z</time>
      </trkpt>
      <trkpt lat="47.28533" lon="4.92786">
        <ele>640</ele>
        <time>2012-12-22T09:15:02Z</time>
      </trkpt>
      <trkpt lat="47.28532" lon="4.92794">
        <ele>643</ele>
        <time>2012-12-22T09:15:09Z</time>
      </trkpt>
      <trkpt lat="47.2853" lon="4.92801">
        <ele>644</ele>
        <time>2012-12-22T09:15:12Z</time>
      </trkpt>
      <trkpt lat="47.28529" lon="4.9281">
        <ele>644</ele>
        <time>2012-12-22T09:15:16Z</time>
      </trkpt>
      <trkpt lat="47.28528" lon="4.92819">
        <ele>644</ele>
        <time>2012-12-22T09:15:20Z</time>
      </trkpt>
      <trkpt lat="47.2853" lon="4.92827">
        <ele>644</ele>
        <time>2012-12-22T09:15:23Z</time>
      </trkpt>
      <trkpt lat="47.2853" lon="4.92835">
        <ele>644</ele>
        <time>2012-12-22T09:15:27Z</time>
      </trkpt>
      <trkpt lat="47.28529" lon="4.92842">
        <ele>644</ele>
        <time>2012-12-22T09:15:30Z</time>
      </trkpt>
      <trkpt lat="47.2853" lon="4.92851">
        <ele>644</ele>
        <time>2012-12-22T09:15:33Z</time>
      </trkpt>
      <trkpt lat="47.2853" lon="4.92858">
        <ele>644</ele>
        <time>2012-12-22T09:15:37Z</time>
      </trkpt>
      <trkpt lat="47.28529" lon="4.92865">
        <ele>644</ele>
        <time>2012-12-22T09:15:39Z</time>
      </trkpt>
      <trkpt lat="47.28528" lon="4.92874">
        <ele>644</ele>
        <time>2012-12-22T09:15:42Z</time>
      </trkpt>
      <trkpt lat="47.28526" lon="4.92883">
        <ele>643</ele>
        <time>2012-12-22T09:15:46Z</time>
      </trkpt>
      <trkpt lat="47.28525" lon="4.92892">
        <ele>643</ele>
        <time>2012-12-22T09:15:50Z</time>
      </trkpt>
      <trkpt lat="47.28527" lon="4.92903">
        <ele>642</ele>
        <time>2012-12-22T09:15:54Z</time>
      </trkpt>
      <trkpt lat="47.28531" lon="4.92908">
        <ele>638</ele>
        <time>2012-12-22T09:15:55Z</time>
      </trkpt>
      <trkpt lat="47.28536" lon="4.92913">
        <ele>634</ele>
        <time>2012-12-22T09:15:58Z</time>
      </trkpt>
      <trkpt lat="47.28541" lon="4.92913">
        <ele>634</ele>
        <time>2012-12-22T09:16:01Z</time>
      </trkpt>
      <trkpt lat="47.28546" lon="4.92911">
        <ele>634</ele>
        <time>2012-12-22T09:16:04Z</time>
      </trkpt>
      <trkpt lat="47.28552" lon="4.92912">
        <ele>635</ele>
        <time>2012-12-22T09:16:08Z</time>
      </trkpt>
      <trkpt lat="47.28556" lon="4.92913">
        <ele>636</ele>
        <time>2012-12-22T09:16:11Z</time>
      </trkpt>
      <trkpt lat="47.28562" lon="4.92916">
        <ele>636</ele>
        <time>2012-12-22T09:16:13Z</time>
      </trkpt>
      <trkpt lat="47.28567" lon="4.92917">
        <ele>637</ele>
        <time>2012-12-22T09:16:16Z</time>
      </trkpt>
      <trkpt lat="47.28574" lon="4.92919">
        <ele>637</ele>
        <time>2012-12-22T09:16:20Z</time>
      </trkpt>
      <trkpt lat="47.28579" lon="4.92919">
        <ele>637</ele>
        <time>2012-12-22T09:16:22Z</time>
      </trkpt>
      <trkpt lat="47.28584" lon="4.92918">
        <ele>637</ele>
        <time>2012-12-22T09:16:24Z</time>
      </trkpt>
      <trkpt lat="47.2859" lon="4.92921">
        <ele>637</ele>
        <time>2012-12-22T09:16:27Z</time>
      </trkpt>
      <trkpt lat="47.28595" lon="4.92922">
        <ele>638</ele>
        <time>2012-12-22T09:16:29Z</time>
      </trkpt>
      <trkpt lat="47.28602" lon="4.92924">
        <ele>639</ele>
        <time>2012-12-22T09:16:32Z</time>
      </trkpt>
      <trkpt lat="47.28607" lon="4.92923">
        <ele>639</ele>
        <time>2012-12-22T09:16:34Z</time>
      </trkpt>
      <trkpt lat="47.28612" lon="4.92923">
        <ele>639</ele>
        <time>2012-12-22T09:16:37Z</time>
      </trkpt>
      <trkpt lat="47.28617" lon="4.92923">
        <ele>639</ele>
        <time>2012-12-22T09:16:40Z</time>
      </trkpt>
      <trkpt lat="47.28623" lon="4.92924">
        <ele>639</ele>
        <time>2012-12-22T09:16:43Z</time>
      </trkpt>
      <trkpt lat="47.28628" lon="4.92924">
        <ele>638</ele>
        <time>2012-12-22T09:16:45Z</time>
      </trkpt>
      <trkpt lat="47.28634" lon="4.92927">
        <ele>638</ele>
        <time>2012-12-22T09:16:48Z</time>
      </trkpt>
      <trkpt lat="47.28638" lon="4.9293">
        <ele>637</ele>
        <time>2012-12-22T09:16:51Z</time>
      </trkpt>
      <trkpt lat="47.28644" lon="4.9293">
        <ele>637</ele>
        <time>2012-12-22T09:16:54Z</time>
      </trkpt>
      <trkpt lat="47.28647" lon="4.92925">
        <ele>638</ele>
        <time>2012-12-22T09:16:57Z</time>
      </trkpt>
      <trkpt lat="47.28652" lon="4.92922">
        <ele>637</ele>
        <time>2012-12-22T09:17:05Z</time>
      </trkpt>
      <trkpt lat="47.28658" lon="4.92922">
        <ele>637</ele>
        <time>2012-12-22T09:17:08Z</time>
      </trkpt>
      <trkpt lat="47.28666" lon="4.92924">
        <ele>636</ele>
        <time>2012-12-22T09:17:13Z</time>
      </trkpt>
      <trkpt lat="47.28666" lon="4.92924">
        <ele>636</ele>
        <time>2012-12-22T09:17:13Z</time>
      </trkpt>
      <trkpt lat="47.28666" lon="4.92924">
        <ele>636</ele>
        <time>2012-12-22T09:17:14Z</time>
      </trkpt>
      <trkpt lat="47.28673" lon="4.92923">
        <ele>635</ele>
        <time>2012-12-22T09:17:17Z</time>
      </trkpt>
      <trkpt lat="47.28678" lon="4.92922">
        <ele>634</ele>
        <time>2012-12-22T09:17:19Z</time>
      </trkpt>
      <trkpt lat="47.28686" lon="4.92923">
        <ele>633</ele>
        <time>2012-12-22T09:17:21Z</time>
      </trkpt>
      <trkpt lat="47.28693" lon="4.92923">
        <ele>632</ele>
        <time>2012-12-22T09:17:23Z</time>
      </trkpt>
      <trkpt lat="47.287" lon="4.92922">
        <ele>634</ele>
        <time>2012-12-22T09:17:25Z</time>
      </trkpt>
      <trkpt lat="47.28707" lon="4.92919">
        <ele>634</ele>
        <time>2012-12-22T09:17:28Z</time>
      </trkpt>
      <trkpt lat="47.2871" lon="4.92913">
        <ele>634</ele>
        <time>2012-12-22T09:17:30Z</time>
      </trkpt>
      <trkpt lat="47.28713" lon="4.92906">
        <ele>633</ele>
        <time>2012-12-22T09:17:32Z</time>
      </trkpt>
      <trkpt lat="47.28716" lon="4.92897">
        <ele>634</ele>
        <time>2012-12-22T09:17:36Z</time>
      </trkpt>
      <trkpt lat="47.28718" lon="4.92892">
        <ele>635</ele>
        <time>2012-12-22T09:17:38Z</time>
      </trkpt>
      <trkpt lat="47.28723" lon="4.92889">
        <ele>636</ele>
        <time>2012-12-22T09:17:42Z</time>
      </trkpt>
      <trkpt lat="47.28728" lon="4.92889">
        <ele>636</ele>
        <time>2012-12-22T09:17:44Z</time>
      </trkpt>
      <trkpt lat="47.28735" lon="4.92891">
        <ele>638</ele>
        <time>2012-12-22T09:17:47Z</time>
      </trkpt>
      <trkpt lat="47.28741" lon="4.92892">
        <ele>638</ele>
        <time>2012-12-22T09:17:50Z</time>
      </trkpt>
      <trkpt lat="47.28741" lon="4.92892">
        <ele>638</ele>
        <time>2012-12-22T09:17:50Z</time>
      </trkpt>
      <trkpt lat="47.28741" lon="4.92892">
        <ele>638</ele>
        <time>2012-12-22T09:17:51Z</time>
      </trkpt>
      <trkpt lat="47.28736" lon="4.9289">
        <ele>632</ele>
        <time>2012-12-22T09:17:59Z</time>
      </trkpt>
      <trkpt lat="47.28731" lon="4.92889">
        <ele>632</ele>
        <time>2012-12-22T09:18:03Z</time>
      </trkpt>
      <trkpt lat="47.28726" lon="4.92884">
        <ele>632</ele>
        <time>2012-12-22T09:18:06Z</time>
      </trkpt>
      <trkpt lat="47.28728" lon="4.92877">
        <ele>632</ele>
        <time>2012-12-22T09:18:10Z</time>
      </trkpt>
      <trkpt lat="47.28731" lon="4.92871">
        <ele>631</ele>
        <time>2012-12-22T09:18:13Z</time>
      </trkpt>
      <trkpt lat="47.28733" lon="4.92865">
        <ele>632</ele>
        <time>2012-12-22T09:18:16Z</time>
      </trkpt>
      <trkpt lat="47.28736" lon="4.92856">
        <ele>632</ele>
        <time>2012-12-22T09:18:19Z</time>
      </trkpt>
      <trkpt lat="47.28737" lon="4.92848">
        <ele>631</ele>
        <time>2012-12-22T09:18:23Z</time>
      </trkpt>
      <trkpt lat="47.28739" lon="4.92841">
        <ele>629</ele>
        <time>2012-12-22T09:18:27Z</time>
      </trkpt>
      <trkpt lat="47.28742" lon="4.92836">
        <ele>630</ele>
        <time>2012-12-22T09:18:30Z</time>
      </trkpt>
      <trkpt lat="47.28746" lon="4.9283">
        <ele>630</ele>
        <time>2012-12-22T09:18:33Z</time>
      </trkpt>
      <trkpt lat="47.28748" lon="4.92823">
        <ele>629</ele>
        <time>2012-12-22T09:18:35Z</time>
      </trkpt>
      <trkpt lat="47.28753" lon="4.92818">
        <ele>630</ele>
        <time>2012-12-22T09:18:38Z</time>
      </trkpt>
      <trkpt lat="47.28758" lon="4.92817">
        <ele>633</ele>
        <time>2012-12-22T09:18:42Z</time>
      </trkpt>
      <trkpt lat="47.28762" lon="4.92819">
        <ele>635</ele>
        <time>2012-12-22T09:18:46Z</time>
      </trkpt>
      <trkpt lat="47.28767" lon="4.92824">
        <ele>637</ele>
        <time>2012-12-22T09:18:50Z</time>
      </trkpt>
      <trkpt lat="47.28772" lon="4.9283">
        <ele>637</ele>
        <time>2012-12-22T09:18:52Z</time>
      </trkpt>
      <trkpt lat="47.28778" lon="4.92834">
        <ele>637</ele>
        <time>2012-12-22T09:18:55Z</time>
      </trkpt>
      <trkpt lat="47.28782" lon="4.92838">
        <ele>638</ele>
        <time>2012-12-22T09:18:58Z</time>
      </trkpt>
      <trkpt lat="47.28786" lon="4.92842">
        <ele>639</ele>
        <time>2012-12-22T09:19:01Z</time>
      </trkpt>
      <trkpt lat="47.28791" lon="4.92845">
        <ele>639</ele>
        <time>2012-12-22T09:19:04Z</time>
      </trkpt>
      <trkpt lat="47.28795" lon="4.92849">
        <ele>641</ele>
        <time>2012-12-22T09:19:07Z</time>
      </trkpt>
      <trkpt lat="47.28799" lon="4.92855">
        <ele>642</ele>
        <time>2012-12-22T09:19:10Z</time>
      </trkpt>
      <trkpt lat="47.28803" lon="4.92861">
        <ele>641</ele>
        <time>2012-12-22T09:19:12Z</time>
      </trkpt>
      <trkpt lat="47.28808" lon="4.92871">
        <ele>636</ele>
        <time>2012-12-22T09:19:13Z</time>
      </trkpt>
      <trkpt lat="47.28813" lon="4.92875">
        <ele>633</ele>
        <time>2012-12-22T09:19:16Z</time>
      </trkpt>
      <trkpt lat="47.2881" lon="4.92869">
        <ele>634</ele>
        <time>2012-12-22T09:19:23Z</time>
      </trkpt>
      <trkpt lat="47.28805" lon="4.92864">
        <ele>635</ele>
        <time>2012-12-22T09:19:28Z</time>
      </trkpt>
      <trkpt lat="47.288" lon="4.92861">
        <ele>636</ele>
        <time>2012-12-22T09:19:31Z</time>
      </trkpt>
      <trkpt lat="47.28795" lon="4.92853">
        <ele>637</ele>
        <time>2012-12-22T09:19:35Z</time>
      </trkpt>
      <trkpt lat="47.2879" lon="4.9285">
        <ele>638</ele>
        <time>2012-12-22T09:19:37Z</time>
      </trkpt>
      <trkpt lat="47.28786" lon="4.92847">
        <ele>637</ele>
        <time>2012-12-22T09:19:40Z</time>
      </trkpt>
      <trkpt lat="47.28782" lon="4.92842">
        <ele>637</ele>
        <time>2012-12-22T09:19:44Z</time>
      </trkpt>
      <trkpt lat="47.28778" lon="4.92838">
        <ele>639</ele>
        <time>2012-12-22T09:19:46Z</time>
      </trkpt>
      <trkpt lat="47.28772" lon="4.92833">
        <ele>639</ele>
        <time>2012-12-22T09:19:48Z</time>
      </trkpt>
      <trkpt lat="47.28769" lon="4.92827">
        <ele>640</ele>
        <time>2012-12-22T09:19:50Z</time>
      </trkpt>
      <trkpt lat="47.28765" lon="4.92823">
        <ele>642</ele>
        <time>2012-12-22T09:19:52Z</time>
      </trkpt>
      <trkpt lat="47.28763" lon="4.92816">
        <ele>641</ele>
        <time>2012-12-22T09:19:55Z</time>
      </trkpt>
      <trkpt lat="47.28763" lon="4.92809">
        <ele>639</ele>
        <time>2012-12-22T09:20:00Z</time>
      </trkpt>
      <trkpt lat="47.28764" lon="4.92798">
        <ele>637</ele>
        <time>2012-12-22T09:20:02Z</time>
      </trkpt>
      <trkpt lat="47.28767" lon="4.92791">
        <ele>637</ele>
        <time>2012-12-22T09:20:04Z</time>
      </trkpt>
      <trkpt lat="47.28769" lon="4.92782">
        <ele>636</ele>
        <time>2012-12-22T09:20:07Z</time>
      </trkpt>
      <trkpt lat="47.28773" lon="4.92776">
        <ele>636</ele>
        <time>2012-12-22T09:20:09Z</time>
      </trkpt>
      <trkpt lat="47.28779" lon="4.92772">
        <ele>635</ele>
        <time>2012-12-22T09:20:11Z</time>
      </trkpt>
      <trkpt lat="47.28783" lon="4.92768">
        <ele>637</ele>
        <time>2012-12-22T09:20:14Z</time>
      </trkpt>
      <trkpt lat="47.28786" lon="4.92764">
        <ele>635</ele>
        <time>2012-12-22T09:20:18Z</time>
      </trkpt>
      <trkpt lat="47.2879" lon="4.92759">
        <ele>635</ele>
        <time>2012-12-22T09:20:20Z</time>
      </trkpt>
      <trkpt lat="47.28795" lon="4.92757">
        <ele>636</ele>
        <time>2012-12-22T09:20:23Z</time>
      </trkpt>
      <trkpt lat="47.28802" lon="4.92756">
        <ele>635</ele>
        <time>2012-12-22T09:20:27Z</time>
      </trkpt>
      <trkpt lat="47.28809" lon="4.92757">
        <ele>634</ele>
        <time>2012-12-22T09:20:30Z</time>
      </trkpt>
      <trkpt lat="47.28813" lon="4.92753">
        <ele>633</ele>
        <time>2012-12-22T09:20:32Z</time>
      </trkpt>
      <trkpt lat="47.28818" lon="4.92752">
        <ele>633</ele>
        <time>2012-12-22T09:20:34Z</time>
      </trkpt>
      <trkpt lat="47.28825" lon="4.9275">
        <ele>635</ele>
        <time>2012-12-22T09:20:37Z</time>
      </trkpt>
      <trkpt lat="47.28828" lon="4.92744">
        <ele>637</ele>
        <time>2012-12-22T09:20:40Z</time>
      </trkpt>
      <trkpt lat="47.28833" lon="4.92743">
        <ele>636</ele>
        <time>2012-12-22T09:20:42Z</time>
      </trkpt>
      <trkpt lat="47.28837" lon="4.92742">
        <ele>636</ele>
        <time>2012-12-22T09:20:44Z</time>
      </trkpt>
      <trkpt lat="47.28842" lon="4.92738">
        <ele>636</ele>
        <time>2012-12-22T09:20:46Z</time>
      </trkpt>
      <trkpt lat="47.28847" lon="4.92737">
        <ele>636</ele>
        <time>2012-12-22T09:20:48Z</time>
      </trkpt>
      <trkpt lat="47.28851" lon="4.92735">
        <ele>637</ele>
        <time>2012-12-22T09:20:50Z</time>
      </trkpt>
      <trkpt lat="47.28856" lon="4.92733">
        <ele>638</ele>
        <time>2012-12-22T09:20:52Z</time>
      </trkpt>
      <trkpt lat="47.28862" lon="4.92732">
        <ele>639</ele>
        <time>2012-12-22T09:20:55Z</time>
      </trkpt>
      <trkpt lat="47.28868" lon="4.92734">
        <ele>639</ele>
        <time>2012-12-22T09:20:57Z</time>
      </trkpt>
      <trkpt lat="47.28873" lon="4.92732">
        <ele>640</ele>
        <time>2012-12-22T09:21:00Z</time>
      </trkpt>
      <trkpt lat="47.28877" lon="4.92738">
        <ele>640</ele>
        <time>2012-12-22T09:21:03Z</time>
      </trkpt>
      <trkpt lat="47.28884" lon="4.92737">
        <ele>640</ele>
        <time>2012-12-22T09:21:05Z</time>
      </trkpt>
      <trkpt lat="47.28893" lon="4.92738">
        <ele>639</ele>
        <time>2012-12-22T09:21:08Z</time>
      </trkpt>
      <trkpt lat="47.28898" lon="4.92738">
        <ele>639</ele>
        <time>2012-12-22T09:21:10Z</time>
      </trkpt>
      <trkpt lat="47.28902" lon="4.92734">
        <ele>638</ele>
        <time>2012-12-22T09:21:12Z</time>
      </trkpt>
      <trkpt lat="47.28907" lon="4.92732">
        <ele>638</ele>
        <time>2012-12-22T09:21:14Z</time>
      </trkpt>
      <trkpt lat="47.28912" lon="4.92734">
        <ele>638</ele>
        <time>2012-12-22T09:21:16Z</time>
      </trkpt>
      <trkpt lat="47.28918" lon="4.92734">
        <ele>636</ele>
        <time>2012-12-22T09:21:18Z</time>
      </trkpt>
      <trkpt lat="47.28923" lon="4.92734">
        <ele>636</ele>
        <time>2012-12-22T09:21:20Z</time>
      </trkpt>
      <trkpt lat="47.2893" lon="4.92735">
        <ele>634</ele>
        <time>2012-12-22T09:21:22Z</time>
      </trkpt>
      <trkpt lat="47.28934" lon="4.92737">
        <ele>633</ele>
        <time>2012-12-22T09:21:23Z</time>
      </trkpt>
      <trkpt lat="47.28941" lon="4.92737">
        <ele>632</ele>
        <time>2012-12-22T09:21:25Z</time>
      </trkpt>
      <trkpt lat="47.28946" lon="4.92738">
        <ele>630</ele>
        <time>2012-12-22T09:21:29Z</time>
      </trkpt>
      <trkpt lat="47.28952" lon="4.9274">
        <ele>628</ele>
        <time>2012-12-22T09:21:32Z</time>
      </trkpt>
      <trkpt lat="47.28958" lon="4.92743">
        <ele>628</ele>
        <time>2012-12-22T09:21:35Z</time>
      </trkpt>
      <trkpt lat="47.28962" lon="4.92746">
        <ele>628</ele>
        <time>2012-12-22T09:21:37Z</time>
      </trkpt>
      <trkpt lat="47.28967" lon="4.92749">
        <ele>626</ele>
        <time>2012-12-22T09:21:40Z</time>
      </trkpt>
      <trkpt lat="47.28972" lon="4.92752">
        <ele>625</ele>
        <time>2012-12-22T09:21:42Z</time>
      </trkpt>
      <trkpt lat="47.28976" lon="4.92755">
        <ele>625</ele>
        <time>2012-12-22T09:21:44Z</time>
      </trkpt>
      <trkpt lat="47.2898" lon="4.92758">
        <ele>624</ele>
        <time>2012-12-22T09:21:46Z</time>
      </trkpt>
      <trkpt lat="47.28988" lon="4.92761">
        <ele>626</ele>
        <time>2012-12-22T09:21:50Z</time>
      </trkpt>
      <trkpt lat="47.28993" lon="4.92765">
        <ele>626</ele>
        <time>2012-12-22T09:21:53Z</time>
      </trkpt>
      <trkpt lat="47.28998" lon="4.9277">
        <ele>623</ele>
        <time>2012-12-22T09:21:56Z</time>
      </trkpt>
      <trkpt lat="47.29002" lon="4.92773">
        <ele>622</ele>
        <time>2012-12-22T09:21:58Z</time>
      </trkpt>
      <trkpt lat="47.29007" lon="4.92778">
        <ele>621</ele>
        <time>2012-12-22T09:22:00Z</time>
      </trkpt>
      <trkpt lat="47.29012" lon="4.92782">
        <ele>621</ele>
        <time>2012-12-22T09:22:03Z</time>
      </trkpt>
      <trkpt lat="47.29017" lon="4.92786">
        <ele>620</ele>
        <time>2012-12-22T09:22:06Z</time>
      </trkpt>
      <trkpt lat="47.29401" lon="4.93334">
        <ele>609</ele>
        <time>2012-12-22T09:30:03Z</time>
      </trkpt>
      <trkpt lat="47.29414" lon="4.93341">
        <ele>610</ele>
        <time>2012-12-22T09:30:08Z</time>
      </trkpt>
      <trkpt lat="47.29412" lon="4.93332">
        <ele>609</ele>
        <time>2012-12-22T09:30:10Z</time>
      </trkpt>
      <trkpt lat="47.29418" lon="4.93341">
        <ele>605</ele>
        <time>2012-12-22T09:30:12Z</time>
      </trkpt>
      <trkpt lat="47.29429" lon="4.93352">
        <ele>602</ele>
        <time>2012-12-22T09:30:22Z</time>
      </trkpt>
      <trkpt lat="47.29434" lon="4.93358">
        <ele>601</ele>
        <time>2012-12-22T09:30:25Z</time>
      </trkpt>
      <trkpt lat="47.29437" lon="4.93363">
        <ele>598</ele>
        <time>2012-12-22T09:30:27Z</time>
      </trkpt>
      <trkpt lat="47.29442" lon="4.93366">
        <ele>597</ele>
        <time>2012-12-22T09:30:30Z</time>
      </trkpt>
      <trkpt lat="47.29445" lon="4.93371">
        <ele>596</ele>
        <time>2012-12-22T09:30:33Z</time>
      </trkpt>
      <trkpt lat="47.29448" lon="4.93378">
        <ele>595</ele>
        <time>2012-12-22T09:30:36Z</time>
      </trkpt>
      <trkpt lat="47.29454" lon="4.93383">
        <ele>594</ele>
        <time>2012-12-22T09:30:39Z</time>
      </trkpt>
      <trkpt lat="47.29459" lon="4.93387">
        <ele>594</ele>
        <time>2012-12-22T09:30:42Z</time>
      </trkpt>
      <trkpt lat="47.29462" lon="4.93393">
        <ele>595</ele>
        <time>2012-12-22T09:30:46Z</time>
      </trkpt>
      <trkpt lat="47.29463" lon="4.93402">
        <ele>590</ele>
        <time>2012-12-22T09:30:49Z</time>
      </trkpt>
      <trkpt lat="47.29468" lon="4.9341">
        <ele>591</ele>
        <time>2012-12-22T09:30:51Z</time>
      </trkpt>
      <trkpt lat="47.29475" lon="4.93414">
        <ele>590</ele>
        <time>2012-12-22T09:30:53Z</time>
      </trkpt>
      <trkpt lat="47.2948" lon="4.93416">
        <ele>589</ele>
        <time>2012-12-22T09:30:55Z</time>
      </trkpt>
      <trkpt lat="47.29483" lon="4.93421">
        <ele>589</ele>
        <time>2012-12-22T09:30:57Z</time>
      </trkpt>
      <trkpt lat="47.29487" lon="4.93427">
        <ele>587</ele>
        <time>2012-12-22T09:31:00Z</time>
      </trkpt>
      <trkpt lat="47.29491" lon="4.93431">
        <ele>585</ele>
        <time>2012-12-22T09:31:03Z</time>
      </trkpt>
      <trkpt lat="47.29497" lon="4.93432">
        <ele>583</ele>
        <time>2012-12-22T09:31:05Z</time>
      </trkpt>
      <trkpt lat="47.29502" lon="4.93434">
        <ele>580</ele>
        <time>2012-12-22T09:31:09Z</time>
      </trkpt>
      <trkpt lat="47.29507" lon="4.93436">
        <ele>581</ele>
        <time>2012-12-22T09:31:12Z</time>
      </trkpt>
      <trkpt lat="47.29512" lon="4.93442">
        <ele>581</ele>
        <time>2012-12-22T09:31:16Z</time>
      </trkpt>
      <trkpt lat="47.29517" lon="4.93447">
        <ele>577</ele>
        <time>2012-12-22T09:31:18Z</time>
      </trkpt>
      <trkpt lat="47.29516" lon="4.93454">
        <ele>577</ele>
        <time>2012-12-22T09:31:20Z</time>
      </trkpt>
      <trkpt lat="47.29516" lon="4.93454">
        <ele>577</ele>
        <time>2012-12-22T09:31:20Z</time>
      </trkpt>
      <trkpt lat="47.29516" lon="4.93454">
        <ele>577</ele>
        <time>2012-12-22T09:31:25Z</time>
      </trkpt>
      <trkpt lat="47.29511" lon="4.93453">
        <ele>576</ele>
        <time>2012-12-22T09:31:28Z</time>
      </trkpt>
      <trkpt lat="47.29506" lon="4.93453">
        <ele>577</ele>
        <time>2012-12-22T09:31:33Z</time>
      </trkpt>
      <trkpt lat="47.295" lon="4.93451">
        <ele>576</ele>
        <time>2012-12-22T09:31:36Z</time>
      </trkpt>
      <trkpt lat="47.29496" lon="4.93446">
        <ele>577</ele>
        <time>2012-12-22T09:31:40Z</time>
      </trkpt>
      <trkpt lat="47.2949" lon="4.93442">
        <ele>577</ele>
        <time>2012-12-22T09:31:43Z</time>
      </trkpt>
      <trkpt lat="47.29486" lon="4.93438">
        <ele>577</ele>
        <time>2012-12-22T09:31:45Z</time>
      </trkpt>
      <trkpt lat="47.29481" lon="4.93433">
        <ele>578</ele>
        <time>2012-12-22T09:31:49Z</time>
      </trkpt>
      <trkpt lat="47.29477" lon="4.93429">
        <ele>579</ele>
        <time>2012-12-22T09:31:52Z</time>
      </trkpt>
      <trkpt lat="47.29472" lon="4.93425">
        <ele>579</ele>
        <time>2012-12-22T09:31:56Z</time>
      </trkpt>
      <trkpt lat="47.29467" lon="4.93424">
        <ele>581</ele>
        <time>2012-12-22T09:32:00Z</time>
      </trkpt>
      <trkpt lat="47.29461" lon="4.93423">
        <ele>583</ele>
        <time>2012-12-22T09:32:04Z</time>
      </trkpt>
      <trkpt lat="47.29462" lon="4.93416">
        <ele>583</ele>
        <time>2012-12-22T09:32:07Z</time>
      </trkpt>
      <trkpt lat="47.29466" lon="4.93413">
        <ele>584</ele>
        <time>2012-12-22T09:32:10Z</time>
      </trkpt>
      <trkpt lat="47.2947" lon="4.9341">
        <ele>586</ele>
        <time>2012-12-22T09:32:14Z</time>
      </trkpt>
      <trkpt lat="47.29475" lon="4.93411">
        <ele>583</ele>
        <time>2012-12-22T09:32:27Z</time>
      </trkpt>
      <trkpt lat="47.29481" lon="4.93413">
        <ele>582</ele>
        <time>2012-12-22T09:32:31Z</time>
      </trkpt>
      <trkpt lat="47.29486" lon="4.9342">
        <ele>582</ele>
        <time>2012-12-22T09:32:34Z</time>
      </trkpt>
      <trkpt lat="47.29491" lon="4.93425">
        <ele>580</ele>
        <time>2012-12-22T09:32:36Z</time>
      </trkpt>
      <trkpt lat="47.29495" lon="4.9343">
        <ele>578</ele>
        <time>2012-12-22T09:32:41Z</time>
      </trkpt>
      <trkpt lat="47.29499" lon="4.93436">
        <ele>578</ele>
        <time>2012-12-22T09:32:47Z</time>
      </trkpt>
      <trkpt lat="47.29499" lon="4.93436">
        <ele>578</ele>
        <time>2012-12-22T09:32:47Z</time>
      </trkpt>
      <trkpt lat="47.29499" lon="4.93436">
        <ele>578</ele>
        <time>2012-12-22T09:32:49Z</time>
      </trkpt>
      <trkpt lat="47.29505" lon="4.93437">
        <ele>578</ele>
        <time>2012-12-22T09:32:54Z</time>
      </trkpt>
      <trkpt lat="47.2951" lon="4.93438">
        <ele>577</ele>
        <time>2012-12-22T09:33:01Z</time>
      </trkpt>
      <trkpt lat="47.29512" lon="4.93443">
        <ele>575</ele>
        <time>2012-12-22T09:33:04Z</time>
      </trkpt>
      <trkpt lat="47.29512" lon="4.93443">
        <ele>575</ele>
        <time>2012-12-22T09:33:04Z</time>
      </trkpt>
      <trkpt lat="47.29512" lon="4.93443">
        <ele>574</ele>
        <time>2012-12-22T09:33:07Z</time>
      </trkpt>
      <trkpt lat="47.29508" lon="4.93451">
        <ele>572</ele>
        <time>2012-12-22T09:33:35Z</time>
      </trkpt>
      <trkpt lat="47.29508" lon="4.93458">
        <ele>567</ele>
        <time>2012-12-22T09:33:39Z</time>
      </trkpt>
      <trkpt lat="47.29512" lon="4.93463">
        <ele>565</ele>
        <time>2012-12-22T09:33:49Z</time>
      </trkpt>
      <trkpt lat="47.2951" lon="4.93471">
        <ele>572</ele>
        <time>2012-12-22T09:34:01Z</time>
      </trkpt>
      <trkpt lat="47.29508" lon="4.93478">
        <ele>573</ele>
        <time>2012-12-22T09:34:05Z</time>
      </trkpt>
      <trkpt lat="47.29509" lon="4.93487">
        <ele>572</ele>
        <time>2012-12-22T09:34:10Z</time>
      </trkpt>
      <trkpt lat="47.29513" lon="4.93493">
        <ele>574</ele>
        <time>2012-12-22T09:34:14Z</time>
      </trkpt>
      <trkpt lat="47.29517" lon="4.93499">
        <ele>574</ele>
        <time>2012-12-22T09:34:18Z</time>
      </trkpt>
      <trkpt lat="47.29519" lon="4.93507">
        <ele>572</ele>
        <time>2012-12-22T09:34:23Z</time>
      </trkpt>
      <trkpt lat="47.29522" lon="4.93514">
        <ele>571</ele>
        <time>2012-12-22T09:34:26Z</time>
      </trkpt>
      <trkpt lat="47.29524" lon="4.93522">
        <ele>569</ele>
        <time>2012-12-22T09:34:29Z</time>
      </trkpt>
      <trkpt lat="47.29526" lon="4.9353">
        <ele>569</ele>
        <time>2012-12-22T09:34:32Z</time>
      </trkpt>
      <trkpt lat="47.29527" lon="4.93536">
        <ele>568</ele>
        <time>2012-12-22T09:34:35Z</time>
      </trkpt>
      <trkpt lat="47.29528" lon="4.93543">
        <ele>566</ele>
        <time>2012-12-22T09:34:38Z</time>
      </trkpt>
      <trkpt lat="47.2953" lon="4.9355">
        <ele>565</ele>
        <time>2012-12-22T09:34:41Z</time>
      </trkpt>
      <trkpt lat="47.29531" lon="4.93557">
        <ele>564</ele>
        <time>2012-12-22T09:34:43Z</time>
      </trkpt>
      <trkpt lat="47.29533" lon="4.93564">
        <ele>563</ele>
        <time>2012-12-22T09:34:45Z</time>
      </trkpt>
      <trkpt lat="47.29534" lon="4.93575">
        <ele>558</ele>
        <time>2012-12-22T09:34:54Z</time>
      </trkpt>
      <trkpt lat="47.2954" lon="4.93579">
        <ele>554</ele>
        <time>2012-12-22T09:34:56Z</time>
      </trkpt>
      <trkpt lat="47.29544" lon="4.93577">
        <ele>555</ele>
        <time>2012-12-22T09:35:00Z</time>
      </trkpt>
      <trkpt lat="47.2955" lon="4.93579">
        <ele>554</ele>
        <time>2012-12-22T09:35:04Z</time>
      </trkpt>
      <trkpt lat="47.29554" lon="4.93581">
        <ele>554</ele>
        <time>2012-12-22T09:35:07Z</time>
      </trkpt>
      <trkpt lat="47.2956" lon="4.93582">
        <ele>554</ele>
        <time>2012-12-22T09:35:10Z</time>
      </trkpt>
      <trkpt lat="47.29565" lon="4.93581">
        <ele>555</ele>
        <time>2012-12-22T09:35:13Z</time>
      </trkpt>
      <trkpt lat="47.2957" lon="4.93581">
        <ele>554</ele>
        <time>2012-12-22T09:35:17Z</time>
      </trkpt>
      <trkpt lat="47.29576" lon="4.93581">
        <ele>553</ele>
        <time>2012-12-22T09:35:22Z</time>
      </trkpt>
      <trkpt lat="47.29582" lon="4.9358">
        <ele>554</ele>
        <time>2012-12-22T09:35:26Z</time>
      </trkpt>
      <trkpt lat="47.29587" lon="4.93578">
        <ele>554</ele>
        <time>2012-12-22T09:35:30Z</time>
      </trkpt>
      <trkpt lat="47.29591" lon="4.93575">
        <ele>554</ele>
        <time>2012-12-22T09:35:35Z</time>
      </trkpt>
      <trkpt lat="47.29591" lon="4.93575">
        <ele>554</ele>
        <time>2012-12-22T09:35:35Z</time>
      </trkpt>
      <trkpt lat="47.29591" lon="4.93575">
        <ele>554</ele>
        <time>2012-12-22T09:35:36Z</time>
      </trkpt>
      <trkpt lat="47.29597" lon="4.93572">
        <ele>554</ele>
        <time>2012-12-22T09:35:40Z</time>
      </trkpt>
      <trkpt lat="47.29602" lon="4.93572">
        <ele>554</ele>
        <time>2012-12-22T09:35:43Z</time>
      </trkpt>
      <trkpt lat="47.29607" lon="4.93569">
        <ele>555</ele>
        <time>2012-12-22T09:35:45Z</time>
      </trkpt>
      <trkpt lat="47.29612" lon="4.93566">
        <ele>556</ele>
        <time>2012-12-22T09:35:52Z</time>
      </trkpt>
      <trkpt lat="47.29616" lon="4.93562">
        <ele>557</ele>
        <time>2012-12-22T09:35:56Z</time>
      </trkpt>
      <trkpt lat="47.29622" lon="4.93559">
        <ele>558</ele>
        <time>2012-12-22T09:36:00Z</time>
      </trkpt>
      <trkpt lat="47.29626" lon="4.93556">
        <ele>561</ele>
        <time>2012-12-22T09:36:05Z</time>
      </trkpt>
      <trkpt lat="47.2963" lon="4.93552">
        <ele>562</ele>
        <time>2012-12-22T09:36:08Z</time>
      </trkpt>
      <trkpt lat="47.29634" lon="4.93546">
        <ele>562</ele>
        <time>2012-12-22T09:36:11Z</time>
      </trkpt>
      <trkpt lat="47.29637" lon="4.93541">
        <ele>564</ele>
        <time>2012-12-22T09:36:15Z</time>
      </trkpt>
      <trkpt lat="47.2964" lon="4.93536">
        <ele>564</ele>
        <time>2012-12-22T09:36:19Z</time>
      </trkpt>
      <trkpt lat="47.29644" lon="4.9353">
        <ele>563</ele>
        <time>2012-12-22T09:36:23Z</time>
      </trkpt>
      <trkpt lat="47.29649" lon="4.93528">
        <ele>564</ele>
        <time>2012-12-22T09:36:27Z</time>
      </trkpt>
      <trkpt lat="47.29653" lon="4.93525">
        <ele>566</ele>
        <time>2012-12-22T09:36:32Z</time>
      </trkpt>
      <trkpt lat="47.29659" lon="4.93522">
        <ele>567</ele>
        <time>2012-12-22T09:36:36Z</time>
      </trkpt>
      <trkpt lat="47.29664" lon="4.93518">
        <ele>570</ele>
        <time>2012-12-22T09:36:42Z</time>
      </trkpt>
      <trkpt lat="47.29668" lon="4.93516">
        <ele>570</ele>
        <time>2012-12-22T09:36:45Z</time>
      </trkpt>
      <trkpt lat="47.29672" lon="4.93512">
        <ele>571</ele>
        <time>2012-12-22T09:36:50Z</time>
      </trkpt>
      <trkpt lat="47.29678" lon="4.93511">
        <ele>570</ele>
        <time>2012-12-22T09:36:58Z</time>
      </trkpt>
      <trkpt lat="47.29682" lon="4.93507">
        <ele>572</ele>
        <time>2012-12-22T09:37:03Z</time>
      </trkpt>
      <trkpt lat="47.29685" lon="4.93501">
        <ele>575</ele>
        <time>2012-12-22T09:37:10Z</time>
      </trkpt>
      <trkpt lat="47.29689" lon="4.93495">
        <ele>573</ele>
        <time>2012-12-22T09:37:56Z</time>
      </trkpt>
      <trkpt lat="47.29694" lon="4.93496">
        <ele>573</ele>
        <time>2012-12-22T09:38:00Z</time>
      </trkpt>
      <trkpt lat="47.29699" lon="4.93498">
        <ele>572</ele>
        <time>2012-12-22T09:38:05Z</time>
      </trkpt>
      <trkpt lat="47.29703" lon="4.93495">
        <ele>574</ele>
        <time>2012-12-22T09:38:09Z</time>
      </trkpt>
      <trkpt lat="47.2971" lon="4.93496">
        <ele>575</ele>
        <time>2012-12-22T09:38:14Z</time>
      </trkpt>
      <trkpt lat="47.29714" lon="4.93494">
        <ele>577</ele>
        <time>2012-12-22T09:38:16Z</time>
      </trkpt>
      <trkpt lat="47.29719" lon="4.93495">
        <ele>579</ele>
        <time>2012-12-22T09:38:19Z</time>
      </trkpt>
      <trkpt lat="47.29724" lon="4.93497">
        <ele>579</ele>
        <time>2012-12-22T09:38:22Z</time>
      </trkpt>
      <trkpt lat="47.29728" lon="4.93497">
        <ele>576</ele>
        <time>2012-12-22T09:38:26Z</time>
      </trkpt>
      <trkpt lat="47.29734" lon="4.93502">
        <ele>575</ele>
        <time>2012-12-22T09:38:28Z</time>
      </trkpt>
      <trkpt lat="47.29738" lon="4.93501">
        <ele>573</ele>
        <time>2012-12-22T09:38:30Z</time>
      </trkpt>
      <trkpt lat="47.29742" lon="4.93504">
        <ele>574</ele>
        <time>2012-12-22T09:38:32Z</time>
      </trkpt>
      <trkpt lat="47.29747" lon="4.93507">
        <ele>575</ele>
        <time>2012-12-22T09:38:36Z</time>
      </trkpt>
      <trkpt lat="47.29752" lon="4.93506">
        <ele>575</ele>
        <time>2012-12-22T09:38:38Z</time>
      </trkpt>
      <trkpt lat="47.29757" lon="4.93508">
        <ele>576</ele>
        <time>2012-12-22T09:38:42Z</time>
      </trkpt>
      <trkpt lat="47.29762" lon="4.93502">
        <ele>577</ele>
        <time>2012-12-22T09:38:46Z</time>
      </trkpt>
      <trkpt lat="47.29767" lon="4.93501">
        <ele>577</ele>
        <time>2012-12-22T09:38:50Z</time>
      </trkpt>
      <trkpt lat="47.29774" lon="4.935">
        <ele>577</ele>
        <time>2012-12-22T09:38:53Z</time>
      </trkpt>
      <trkpt lat="47.29778" lon="4.93494">
        <ele>576</ele>
        <time>2012-12-22T09:38:55Z</time>
      </trkpt>
      <trkpt lat="47.29783" lon="4.93493">
        <ele>578</ele>
        <time>2012-12-22T09:39:00Z</time>
      </trkpt>
      <trkpt lat="47.29788" lon="4.93494">
        <ele>578</ele>
        <time>2012-12-22T09:39:02Z</time>
      </trkpt>
      <trkpt lat="47.29792" lon="4.93495">
        <ele>577</ele>
        <time>2012-12-22T09:39:03Z</time>
      </trkpt>
      <trkpt lat="47.29796" lon="4.9349">
        <ele>576</ele>
        <time>2012-12-22T09:39:06Z</time>
      </trkpt>
      <trkpt lat="47.298" lon="4.93487">
        <ele>576</ele>
        <time>2012-12-22T09:39:09Z</time>
      </trkpt>
      <trkpt lat="47.29805" lon="4.93481">
        <ele>572</ele>
        <time>2012-12-22T09:39:13Z</time>
      </trkpt>
      <trkpt lat="47.2981" lon="4.9348">
        <ele>571</ele>
        <time>2012-12-22T09:39:16Z</time>
      </trkpt>
      <trkpt lat="47.29816" lon="4.93479">
        <ele>570</ele>
        <time>2012-12-22T09:39:21Z</time>
      </trkpt>
      <trkpt lat="47.29821" lon="4.93475">
        <ele>571</ele>
        <time>2012-12-22T09:39:27Z</time>
      </trkpt>
      <trkpt lat="47.29825" lon="4.93471">
        <ele>571</ele>
        <time>2012-12-22T09:39:31Z</time>
      </trkpt>
      <trkpt lat="47.29829" lon="4.93468">
        <ele>572</ele>
        <time>2012-12-22T09:39:35Z</time>
      </trkpt>
      <trkpt lat="47.29835" lon="4.93469">
        <ele>573</ele>
        <time>2012-12-22T09:39:39Z</time>
      </trkpt>
      <trkpt lat="47.2984" lon="4.93466">
        <ele>573</ele>
        <time>2012-12-22T09:39:42Z</time>
      </trkpt>
      <trkpt lat="47.29843" lon="4.9346">
        <ele>573</ele>
        <time>2012-12-22T09:39:45Z</time>
      </trkpt>
      <trkpt lat="47.29848" lon="4.93456">
        <ele>571</ele>
        <time>2012-12-22T09:39:50Z</time>
      </trkpt>
      <trkpt lat="47.29853" lon="4.93456">
        <ele>572</ele>
        <time>2012-12-22T09:39:53Z</time>
      </trkpt>
      <trkpt lat="47.29858" lon="4.93453">
        <ele>570</ele>
        <time>2012-12-22T09:39:56Z</time>
      </trkpt>
      <trkpt lat="47.29864" lon="4.9345">
        <ele>571</ele>
        <time>2012-12-22T09:39:59Z</time>
      </trkpt>
      <trkpt lat="47.29868" lon="4.93446">
        <ele>573</ele>
        <time>2012-12-22T09:40:02Z</time>
      </trkpt>
      <trkpt lat="47.29872" lon="4.93441">
        <ele>574</ele>
        <time>2012-12-22T09:40:05Z</time>
      </trkpt>
      <trkpt lat="47.29877" lon="4.93441">
        <ele>572</ele>
        <time>2012-12-22T09:40:10Z</time>
      </trkpt>
      <trkpt lat="47.2988" lon="4.93436">
        <ele>570</ele>
        <time>2012-12-22T09:40:12Z</time>
      </trkpt>
      <trkpt lat="47.29885" lon="4.93437">
        <ele>571</ele>
        <time>2012-12-22T09:40:16Z</time>
      </trkpt>
      <trkpt lat="47.29889" lon="4.93432">
        <ele>570</ele>
        <time>2012-12-22T09:40:19Z</time>
      </trkpt>
      <trkpt lat="47.29895" lon="4.93432">
        <ele>569</ele>
        <time>2012-12-22T09:40:22Z</time>
      </trkpt>
      <trkpt lat="47.29899" lon="4.93428">
        <ele>567</ele>
        <time>2012-12-22T09:40:25Z</time>
      </trkpt>
      <trkpt lat="47.29903" lon="4.93423">
        <ele>565</ele>
        <time>2012-12-22T09:40:28Z</time>
      </trkpt>
      <trkpt lat="47.29905" lon="4.93416">
        <ele>563</ele>
        <time>2012-12-22T09:40:30Z</time>
      </trkpt>
      <trkpt lat="47.29907" lon="4.9341">
        <ele>561</ele>
        <time>2012-12-22T09:40:37Z</time>
      </trkpt>
      <trkpt lat="47.29909" lon="4.93404">
        <ele>561</ele>
        <time>2012-12-22T09:40:41Z</time>
      </trkpt>
      <trkpt lat="47.29912" lon="4.93391">
        <ele>561</ele>
        <time>2012-12-22T09:40:45Z</time>
      </trkpt>
      <trkpt lat="47.29915" lon="4.93384">
        <ele>559</ele>
        <time>2012-12-22T09:40:47Z</time>
      </trkpt>
      <trkpt lat="47.29917" lon="4.93378">
        <ele>559</ele>
        <time>2012-12-22T09:40:50Z</time>
      </trkpt>
      <trkpt lat="47.29919" lon="4.93371">
        <ele>559</ele>
        <time>2012-12-22T09:40:53Z</time>
      </trkpt>
      <trkpt lat="47.29919" lon="4.93371">
        <ele>559</ele>
        <time>2012-12-22T09:40:53Z</time>
      </trkpt>
      <trkpt lat="47.29919" lon="4.93371">
        <ele>560</ele>
        <time>2012-12-22T09:40:54Z</time>
      </trkpt>
      <trkpt lat="47.29923" lon="4.93366">
        <ele>562</ele>
        <time>2012-12-22T09:40:57Z</time>
      </trkpt>
      <trkpt lat="47.29927" lon="4.93358">
        <ele>562</ele>
        <time>2012-12-22T09:41:00Z</time>
      </trkpt>
      <trkpt lat="47.29931" lon="4.93354">
        <ele>563</ele>
        <time>2012-12-22T09:41:04Z</time>
      </trkpt>
      <trkpt lat="47.29932" lon="4.93346">
        <ele>565</ele>
        <time>2012-12-22T09:41:08Z</time>
      </trkpt>
      <trkpt lat="47.29935" lon="4.93339">
        <ele>564</ele>
        <time>2012-12-22T09:41:12Z</time>
      </trkpt>
      <trkpt lat="47.29938" lon="4.93333">
        <ele>564</ele>
        <time>2012-12-22T09:41:16Z</time>
      </trkpt>
      <trkpt lat="47.29941" lon="4.93327">
        <ele>566</ele>
        <time>2012-12-22T09:41:21Z</time>
      </trkpt>
      <trkpt lat="47.29944" lon="4.9332">
        <ele>568</ele>
        <time>2012-12-22T09:41:24Z</time>
      </trkpt>
      <trkpt lat="47.29945" lon="4.93312">
        <ele>568</ele>
        <time>2012-12-22T09:41:27Z</time>
      </trkpt>
      <trkpt lat="47.29948" lon="4.93304">
        <ele>567</ele>
        <time>2012-12-22T09:41:32Z</time>
      </trkpt>
      <trkpt lat="47.29953" lon="4.93302">
        <ele>567</ele>
        <time>2012-12-22T09:41:37Z</time>
      </trkpt>
      <trkpt lat="47.29958" lon="4.933">
        <ele>566</ele>
        <time>2012-12-22T09:41:41Z</time>
      </trkpt>
      <trkpt lat="47.29961" lon="4.93294">
        <ele>565</ele>
        <time>2012-12-22T09:41:44Z</time>
      </trkpt>
      <trkpt lat="47.29965" lon="4.93288">
        <ele>563</ele>
        <time>2012-12-22T09:41:46Z</time>
      </trkpt>
      <trkpt lat="47.29968" lon="4.93282">
        <ele>561</ele>
        <time>2012-12-22T09:41:50Z</time>
      </trkpt>
      <trkpt lat="47.29972" lon="4.9327">
        <ele>557</ele>
        <time>2012-12-22T09:41:53Z</time>
      </trkpt>
      <trkpt lat="47.29973" lon="4.9326">
        <ele>554</ele>
        <time>2012-12-22T09:41:55Z</time>
      </trkpt>
      <trkpt lat="47.29976" lon="4.93253">
        <ele>551</ele>
        <time>2012-12-22T09:42:00Z</time>
      </trkpt>
      <trkpt lat="47.29981" lon="4.93254">
        <ele>552</ele>
        <time>2012-12-22T09:42:06Z</time>
      </trkpt>
      <trkpt lat="47.29983" lon="4.93262">
        <ele>552</ele>
        <time>2012-12-22T09:42:14Z</time>
      </trkpt>
      <trkpt lat="47.29987" lon="4.93268">
        <ele>552</ele>
        <time>2012-12-22T09:42:17Z</time>
      </trkpt>
      <trkpt lat="47.29985" lon="4.93276">
        <ele>555</ele>
        <time>2012-12-22T09:42:29Z</time>
      </trkpt>
      <trkpt lat="47.29982" lon="4.9328">
        <ele>554</ele>
        <time>2012-12-22T09:42:34Z</time>
      </trkpt>
      <trkpt lat="47.29981" lon="4.93287">
        <ele>554</ele>
        <time>2012-12-22T09:42:39Z</time>
      </trkpt>
      <trkpt lat="47.29977" lon="4.93293">
        <ele>554</ele>
        <time>2012-12-22T09:42:43Z</time>
      </trkpt>
      <trkpt lat="47.2997" lon="4.933">
        <ele>551</ele>
        <time>2012-12-22T09:42:45Z</time>
      </trkpt>
      <trkpt lat="47.29975" lon="4.9331">
        <ele>549</ele>
        <time>2012-12-22T09:42:46Z</time>
      </trkpt>
      <trkpt lat="47.29977" lon="4.93318">
        <ele>546</ele>
        <time>2012-12-22T09:42:48Z</time>
      </trkpt>
      <trkpt lat="47.29975" lon="4.93326">
        <ele>544</ele>
        <time>2012-12-22T09:42:51Z</time>
      </trkpt>
      <trkpt lat="47.29972" lon="4.93341">
        <ele>542</ele>
        <time>2012-12-22T09:42:58Z</time>
      </trkpt>
      <trkpt lat="47.29969" lon="4.93346">
        <ele>537</ele>
        <time>2012-12-22T09:43:06Z</time>
      </trkpt>
      <trkpt lat="47.29966" lon="4.93352">
        <ele>536</ele>
        <time>2012-12-22T09:43:14Z</time>
      </trkpt>
      <trkpt lat="47.29962" lon="4.9336">
        <ele>536</ele>
        <time>2012-12-22T09:43:18Z</time>
      </trkpt>
      <trkpt lat="47.2996" lon="4.93367">
        <ele>537</ele>
        <time>2012-12-22T09:43:23Z</time>
      </trkpt>
      <trkpt lat="47.29959" lon="4.93374">
        <ele>537</ele>
        <time>2012-12-22T09:43:27Z</time>
      </trkpt>
      <trkpt lat="47.29959" lon="4.93382">
        <ele>536</ele>
        <time>2012-12-22T09:43:33Z</time>
      </trkpt>
      <trkpt lat="47.29959" lon="4.93391">
        <ele>536</ele>
        <time>2012-12-22T09:43:38Z</time>
      </trkpt>
      <trkpt lat="47.29958" lon="4.93398">
        <ele>533</ele>
        <time>2012-12-22T09:43:46Z</time>
      </trkpt>
      <trkpt lat="47.29954" lon="4.93405">
        <ele>530</ele>
        <time>2012-12-22T09:43:53Z</time>
      </trkpt>
      <trkpt lat="47.29953" lon="4.93412">
        <ele>531</ele>
        <time>2012-12-22T09:43:57Z</time>
      </trkpt>
      <trkpt lat="47.2995" lon="4.93418">
        <ele>532</ele>
        <time>2012-12-22T09:44:01Z</time>
      </trkpt>
      <trkpt lat="47.29948" lon="4.93424">
        <ele>532</ele>
        <time>2012-12-22T09:44:07Z</time>
      </trkpt>
      <trkpt lat="47.29945" lon="4.93429">
        <ele>535</ele>
        <time>2012-12-22T09:44:12Z</time>
      </trkpt>
      <trkpt lat="47.29944" lon="4.93436">
        <ele>536</ele>
        <time>2012-12-22T09:44:17Z</time>
      </trkpt>
      <trkpt lat="47.29944" lon="4.93436">
        <ele>536</ele>
        <time>2012-12-22T09:44:17Z</time>
      </trkpt>
      <trkpt lat="47.29944" lon="4.93436">
        <ele>537</ele>
        <time>2012-12-22T09:44:20Z</time>
      </trkpt>
      <trkpt lat="47.29939" lon="4.9344">
        <ele>541</ele>
        <time>2012-12-22T09:44:29Z</time>
      </trkpt>
      <trkpt lat="47.29937" lon="4.93446">
        <ele>546</ele>
        <time>2012-12-22T09:44:35Z</time>
      </trkpt>
      <trkpt lat="47.29935" lon="4.93452">
        <ele>548</ele>
        <time>2012-12-22T09:44:43Z</time>
      </trkpt>
      <trkpt lat="47.2993" lon="4.93457">
        <ele>547</ele>
        <time>2012-12-22T09:44:45Z</time>
      </trkpt>
      <trkpt lat="47.29926" lon="4.93462">
        <ele>549</ele>
        <time>2012-12-22T09:44:48Z</time>
      </trkpt>
      <trkpt lat="47.29922" lon="4.93467">
        <ele>552</ele>
        <time>2012-12-22T09:44:56Z</time>
      </trkpt>
      <trkpt lat="47.29919" lon="4.93472">
        <ele>550</ele>
        <time>2012-12-22T09:45:00Z</time>
      </trkpt>
      <trkpt lat="47.29918" lon="4.9348">
        <ele>550</ele>
        <time>2012-12-22T09:45:06Z</time>
      </trkpt>
      <trkpt lat="47.29912" lon="4.93485">
        <ele>551</ele>
        <time>2012-12-22T09:45:10Z</time>
      </trkpt>
      <trkpt lat="47.29909" lon="4.9349">
        <ele>550</ele>
        <time>2012-12-22T09:45:16Z</time>
      </trkpt>
      <trkpt lat="47.29904" lon="4.93495">
        <ele>549</ele>
        <time>2012-12-22T09:45:21Z</time>
      </trkpt>
      <trkpt lat="47.29904" lon="4.93502">
        <ele>547</ele>
        <time>2012-12-22T09:45:27Z</time>
      </trkpt>
      <trkpt lat="47.299" lon="4.93504">
        <ele>548</ele>
        <time>2012-12-22T09:45:33Z</time>
      </trkpt>
      <trkpt lat="47.299" lon="4.93504">
        <ele>548</ele>
        <time>2012-12-22T09:45:33Z</time>
      </trkpt>
      <trkpt lat="47.299" lon="4.93504">
        <ele>548</ele>
        <time>2012-12-22T09:45:34Z</time>
      </trkpt>
      <trkpt lat="47.29895" lon="4.93507">
        <ele>549</ele>
        <time>2012-12-22T09:45:38Z</time>
      </trkpt>
      <trkpt lat="47.29889" lon="4.9351">
        <ele>547</ele>
        <time>2012-12-22T09:45:41Z</time>
      </trkpt>
      <trkpt lat="47.29884" lon="4.9351">
        <ele>548</ele>
        <time>2012-12-22T09:45:45Z</time>
      </trkpt>
      <trkpt lat="47.2988" lon="4.93515">
        <ele>549</ele>
        <time>2012-12-22T09:45:50Z</time>
      </trkpt>
      <trkpt lat="47.29876" lon="4.9352">
        <ele>545</ele>
        <time>2012-12-22T09:45:52Z</time>
      </trkpt>
      <trkpt lat="47.29872" lon="4.93523">
        <ele>544</ele>
        <time>2012-12-22T09:45:57Z</time>
      </trkpt>
      <trkpt lat="47.29866" lon="4.93526">
        <ele>543</ele>
        <time>2012-12-22T09:46:02Z</time>
      </trkpt>
      <trkpt lat="47.29863" lon="4.93532">
        <ele>542</ele>
        <time>2012-12-22T09:46:11Z</time>
      </trkpt>
      <trkpt lat="47.29863" lon="4.93532">
        <ele>542</ele>
        <time>2012-12-22T09:46:11Z</time>
      </trkpt>
      <trkpt lat="47.29863" lon="4.93532">
        <ele>543</ele>
        <time>2012-12-22T09:46:14Z</time>
      </trkpt>
      <trkpt lat="47.29858" lon="4.93538">
        <ele>542</ele>
        <time>2012-12-22T09:46:25Z</time>
      </trkpt>
      <trkpt lat="47.29852" lon="4.93542">
        <ele>542</ele>
        <time>2012-12-22T09:46:29Z</time>
      </trkpt>
      <trkpt lat="47.2985" lon="4.9355">
        <ele>544</ele>
        <time>2012-12-22T09:46:55Z</time>
      </trkpt>
      <trkpt lat="47.29848" lon="4.93558">
        <ele>545</ele>
        <time>2012-12-22T09:47:00Z</time>
      </trkpt>
      <trkpt lat="47.29843" lon="4.93564">
        <ele>548</ele>
        <time>2012-12-22T09:47:15Z</time>
      </trkpt>
      <trkpt lat="47.29839" lon="4.9357">
        <ele>548</ele>
        <time>2012-12-22T09:47:21Z</time>
      </trkpt>
      <trkpt lat="47.29835" lon="4.93578">
        <ele>550</ele>
        <time>2012-12-22T09:47:27Z</time>
      </trkpt>
      <trkpt lat="47.29831" lon="4.93584">
        <ele>549</ele>
        <time>2012-12-22T09:47:29Z</time>
      </trkpt>
      <trkpt lat="47.29821" lon="4.93592">
        <ele>548</ele>
        <time>2012-12-22T09:47:31Z</time>
      </trkpt>
      <trkpt lat="47.29818" lon="4.93597">
        <ele>547</ele>
        <time>2012-12-22T09:47:32Z</time>
      </trkpt>
      <trkpt lat="47.29814" lon="4.93602">
        <ele>547</ele>
        <time>2012-12-22T09:47:36Z</time>
      </trkpt>
      <trkpt lat="47.2981" lon="4.93606">
        <ele>545</ele>
        <time>2012-12-22T09:47:39Z</time>
      </trkpt>
      <trkpt lat="47.29806" lon="4.93611">
        <ele>546</ele>
        <time>2012-12-22T09:47:43Z</time>
      </trkpt>
      <trkpt lat="47.29806" lon="4.93611">
        <ele>546</ele>
        <time>2012-12-22T09:47:43Z</time>
      </trkpt>
      <trkpt lat="47.29806" lon="4.93611">
        <ele>547</ele>
        <time>2012-12-22T09:47:44Z</time>
      </trkpt>
      <trkpt lat="47.29801" lon="4.93613">
        <ele>546</ele>
        <time>2012-12-22T09:47:50Z</time>
      </trkpt>
      <trkpt lat="47.29794" lon="4.9362">
        <ele>544</ele>
        <time>2012-12-22T09:47:55Z</time>
      </trkpt>
      <trkpt lat="47.29792" lon="4.93626">
        <ele>541</ele>
        <time>2012-12-22T09:52:41Z</time>
      </trkpt>
      <trkpt lat="47.29792" lon="4.93626">
        <ele>541</ele>
        <time>2012-12-22T09:52:41Z</time>
      </trkpt>
      <trkpt lat="47.29792" lon="4.93626">
        <ele>541</ele>
        <time>2012-12-22T09:52:42Z</time>
      </trkpt>
      <trkpt lat="47.29793" lon="4.93632">
        <ele>538</ele>
        <time>2012-12-22T09:55:14Z</time>
      </trkpt>
      <trkpt lat="47.29793" lon="4.93632">
        <ele>538</ele>
        <time>2012-12-22T09:55:14Z</time>
      </trkpt>
      <trkpt lat="47.29793" lon="4.93632">
        <ele>536</ele>
        <time>2012-12-22T09:55:17Z</time>
      </trkpt>
      <trkpt lat="47.29789" lon="4.9363">
        <ele>536</ele>
        <time>2012-12-22T09:55:45Z</time>
      </trkpt>
      <trkpt lat="47.29784" lon="4.93634">
        <ele>537</ele>
        <time>2012-12-22T09:55:48Z</time>
      </trkpt>
      <trkpt lat="47.29778" lon="4.93638">
        <ele>537</ele>
        <time>2012-12-22T09:55:50Z</time>
      </trkpt>
      <trkpt lat="47.29776" lon="4.93644">
        <ele>538</ele>
        <time>2012-12-22T09:55:52Z</time>
      </trkpt>
      <trkpt lat="47.29772" lon="4.93651">
        <ele>537</ele>
        <time>2012-12-22T09:55:55Z</time>
      </trkpt>
      <trkpt lat="47.29769" lon="4.93657">
        <ele>538</ele>
        <time>2012-12-22T09:55:58Z</time>
      </trkpt>
      <trkpt lat="47.29769" lon="4.93664">
        <ele>538</ele>
        <time>2012-12-22T09:56:02Z</time>
      </trkpt>
      <trkpt lat="47.29769" lon="4.93664">
        <ele>538</ele>
        <time>2012-12-22T09:56:02Z</time>
      </trkpt>
      <trkpt lat="47.29769" lon="4.93664">
        <ele>538</ele>
        <time>2012-12-22T09:56:04Z</time>
      </trkpt>
    </trkseg>
  </trk>
</gpx>